<?xml version="1.0" encoding="UTF-8" standalone="no" ?>
<gpx xmlns="http://www.topografix.com/GPX/1/1" xmlns:xsi="http://www.w3.org/2001/XMLSchema-instance" xsi:schemaLocation="http://www.topografix.com/GPX/1/1 http://www.topografix.com/GPX/1/1/gpx.xsd" version="1.1" creator="VisuGPX - https://www.visugpx.com">
  <metadata>
    <name>un brin de Lub</name>
    <desc><![CDATA[dans le Lub.]]></desc>
  </metadata>
  <trk>
    <name><![CDATA[un brin de Lub_1]]></name>
    <trkseg>
      <trkpt lat="43.75594" lon="5.46244">
        <ele>298</ele>
        <time>2020-10-21T14:11:05</time>
      </trkpt>
      <trkpt lat="43.75602" lon="5.46252">
        <ele>296</ele>
        <time>2020-10-21T14:11:22</time>
      </trkpt>
      <trkpt lat="43.75601" lon="5.46239">
        <ele>296</ele>
        <time>2020-10-21T14:11:36</time>
      </trkpt>
      <trkpt lat="43.75595" lon="5.46249">
        <ele>297</ele>
        <time>2020-10-21T14:11:45</time>
      </trkpt>
      <trkpt lat="43.75604" lon="5.46256">
        <ele>297</ele>
        <time>2020-10-21T14:11:50</time>
      </trkpt>
      <trkpt lat="43.75614" lon="5.46261">
        <ele>299</ele>
        <time>2020-10-21T14:11:55</time>
      </trkpt>
      <trkpt lat="43.75633" lon="5.46259">
        <ele>300</ele>
        <time>2020-10-21T14:12:04</time>
      </trkpt>
      <trkpt lat="43.75651" lon="5.46265">
        <ele>300</ele>
        <time>2020-10-21T14:12:19</time>
      </trkpt>
      <trkpt lat="43.75668" lon="5.46271">
        <ele>301</ele>
        <time>2020-10-21T14:12:30</time>
      </trkpt>
      <trkpt lat="43.75676" lon="5.46264">
        <ele>302</ele>
        <time>2020-10-21T14:13:00</time>
      </trkpt>
      <trkpt lat="43.75679" lon="5.46248">
        <ele>302</ele>
        <time>2020-10-21T14:13:04</time>
      </trkpt>
      <trkpt lat="43.75682" lon="5.46235">
        <ele>301</ele>
        <time>2020-10-21T14:13:07</time>
      </trkpt>
      <trkpt lat="43.75684" lon="5.46222">
        <ele>301</ele>
        <time>2020-10-21T14:13:10</time>
      </trkpt>
      <trkpt lat="43.75687" lon="5.46209">
        <ele>301</ele>
        <time>2020-10-21T14:13:13</time>
      </trkpt>
      <trkpt lat="43.7569" lon="5.46196">
        <ele>301</ele>
        <time>2020-10-21T14:13:16</time>
      </trkpt>
      <trkpt lat="43.75697" lon="5.46178">
        <ele>300</ele>
        <time>2020-10-21T14:13:19</time>
      </trkpt>
      <trkpt lat="43.75699" lon="5.46159">
        <ele>299</ele>
        <time>2020-10-21T14:13:21</time>
      </trkpt>
      <trkpt lat="43.75704" lon="5.46134">
        <ele>298</ele>
        <time>2020-10-21T14:13:24</time>
      </trkpt>
      <trkpt lat="43.75708" lon="5.46108">
        <ele>296</ele>
        <time>2020-10-21T14:13:28</time>
      </trkpt>
      <trkpt lat="43.75714" lon="5.46082">
        <ele>295</ele>
        <time>2020-10-21T14:13:32</time>
      </trkpt>
      <trkpt lat="43.75718" lon="5.46057">
        <ele>294</ele>
        <time>2020-10-21T14:13:36</time>
      </trkpt>
      <trkpt lat="43.75719" lon="5.46032">
        <ele>293</ele>
        <time>2020-10-21T14:13:40</time>
      </trkpt>
      <trkpt lat="43.75722" lon="5.46003">
        <ele>289</ele>
        <time>2020-10-21T14:13:46</time>
      </trkpt>
      <trkpt lat="43.75728" lon="5.45976">
        <ele>287</ele>
        <time>2020-10-21T14:13:53</time>
      </trkpt>
      <trkpt lat="43.75738" lon="5.45967">
        <ele>286</ele>
        <time>2020-10-21T14:13:57</time>
      </trkpt>
      <trkpt lat="43.75746" lon="5.45958">
        <ele>287</ele>
        <time>2020-10-21T14:14:00</time>
      </trkpt>
      <trkpt lat="43.75752" lon="5.45948">
        <ele>288</ele>
        <time>2020-10-21T14:14:03</time>
      </trkpt>
      <trkpt lat="43.75758" lon="5.45939">
        <ele>290</ele>
        <time>2020-10-21T14:14:06</time>
      </trkpt>
      <trkpt lat="43.75774" lon="5.4592">
        <ele>291</ele>
        <time>2020-10-21T14:14:13</time>
      </trkpt>
      <trkpt lat="43.75789" lon="5.45902">
        <ele>292</ele>
        <time>2020-10-21T14:14:20</time>
      </trkpt>
      <trkpt lat="43.75804" lon="5.45885">
        <ele>293</ele>
        <time>2020-10-21T14:14:27</time>
      </trkpt>
      <trkpt lat="43.75818" lon="5.45867">
        <ele>294</ele>
        <time>2020-10-21T14:14:34</time>
      </trkpt>
      <trkpt lat="43.75835" lon="5.45853">
        <ele>294</ele>
        <time>2020-10-21T14:14:41</time>
      </trkpt>
      <trkpt lat="43.75852" lon="5.45837">
        <ele>294</ele>
        <time>2020-10-21T14:14:48</time>
      </trkpt>
      <trkpt lat="43.75868" lon="5.45821">
        <ele>293</ele>
        <time>2020-10-21T14:14:55</time>
      </trkpt>
      <trkpt lat="43.75883" lon="5.45806">
        <ele>293</ele>
        <time>2020-10-21T14:15:02</time>
      </trkpt>
      <trkpt lat="43.75899" lon="5.45789">
        <ele>293</ele>
        <time>2020-10-21T14:15:09</time>
      </trkpt>
      <trkpt lat="43.75915" lon="5.45772">
        <ele>292</ele>
        <time>2020-10-21T14:15:16</time>
      </trkpt>
      <trkpt lat="43.7593" lon="5.45757">
        <ele>294</ele>
        <time>2020-10-21T14:15:23</time>
      </trkpt>
      <trkpt lat="43.75946" lon="5.45742">
        <ele>293</ele>
        <time>2020-10-21T14:15:30</time>
      </trkpt>
      <trkpt lat="43.75962" lon="5.45724">
        <ele>292</ele>
        <time>2020-10-21T14:15:37</time>
      </trkpt>
      <trkpt lat="43.75978" lon="5.45707">
        <ele>293</ele>
        <time>2020-10-21T14:15:44</time>
      </trkpt>
      <trkpt lat="43.75994" lon="5.45689">
        <ele>294</ele>
        <time>2020-10-21T14:15:51</time>
      </trkpt>
      <trkpt lat="43.76008" lon="5.45674">
        <ele>295</ele>
        <time>2020-10-21T14:15:57</time>
      </trkpt>
      <trkpt lat="43.76022" lon="5.45658">
        <ele>298</ele>
        <time>2020-10-21T14:16:03</time>
      </trkpt>
      <trkpt lat="43.76038" lon="5.45646">
        <ele>297</ele>
        <time>2020-10-21T14:16:10</time>
      </trkpt>
      <trkpt lat="43.76046" lon="5.45669">
        <ele>305</ele>
        <time>2020-10-21T14:16:23</time>
      </trkpt>
      <trkpt lat="43.76056" lon="5.4569">
        <ele>309</ele>
        <time>2020-10-21T14:16:34</time>
      </trkpt>
      <trkpt lat="43.76065" lon="5.45713">
        <ele>309</ele>
        <time>2020-10-21T14:16:46</time>
      </trkpt>
      <trkpt lat="43.76075" lon="5.45733">
        <ele>312</ele>
        <time>2020-10-21T14:16:59</time>
      </trkpt>
      <trkpt lat="43.76087" lon="5.45753">
        <ele>314</ele>
        <time>2020-10-21T14:17:15</time>
      </trkpt>
      <trkpt lat="43.761" lon="5.45772">
        <ele>315</ele>
        <time>2020-10-21T14:17:30</time>
      </trkpt>
      <trkpt lat="43.76112" lon="5.45792">
        <ele>315</ele>
        <time>2020-10-21T14:17:43</time>
      </trkpt>
      <trkpt lat="43.76126" lon="5.45808">
        <ele>317</ele>
        <time>2020-10-21T14:17:54</time>
      </trkpt>
      <trkpt lat="43.76139" lon="5.45825">
        <ele>316</ele>
        <time>2020-10-21T14:18:04</time>
      </trkpt>
      <trkpt lat="43.76145" lon="5.45835">
        <ele>316</ele>
        <time>2020-10-21T14:18:09</time>
      </trkpt>
      <trkpt lat="43.76153" lon="5.45842">
        <ele>317</ele>
        <time>2020-10-21T14:18:13</time>
      </trkpt>
      <trkpt lat="43.76165" lon="5.45845">
        <ele>316</ele>
        <time>2020-10-21T14:18:17</time>
      </trkpt>
      <trkpt lat="43.7618" lon="5.45842">
        <ele>316</ele>
        <time>2020-10-21T14:18:20</time>
      </trkpt>
      <trkpt lat="43.76193" lon="5.45836">
        <ele>316</ele>
        <time>2020-10-21T14:18:22</time>
      </trkpt>
      <trkpt lat="43.76205" lon="5.45829">
        <ele>315</ele>
        <time>2020-10-21T14:18:24</time>
      </trkpt>
      <trkpt lat="43.76216" lon="5.45822">
        <ele>315</ele>
        <time>2020-10-21T14:18:26</time>
      </trkpt>
      <trkpt lat="43.76229" lon="5.45813">
        <ele>316</ele>
        <time>2020-10-21T14:18:28</time>
      </trkpt>
      <trkpt lat="43.76238" lon="5.45806">
        <ele>317</ele>
        <time>2020-10-21T14:18:30</time>
      </trkpt>
      <trkpt lat="43.76248" lon="5.45794">
        <ele>317</ele>
        <time>2020-10-21T14:18:33</time>
      </trkpt>
      <trkpt lat="43.76258" lon="5.45786">
        <ele>316</ele>
        <time>2020-10-21T14:18:36</time>
      </trkpt>
      <trkpt lat="43.76268" lon="5.45777">
        <ele>317</ele>
        <time>2020-10-21T14:18:39</time>
      </trkpt>
      <trkpt lat="43.76278" lon="5.45766">
        <ele>318</ele>
        <time>2020-10-21T14:18:42</time>
      </trkpt>
      <trkpt lat="43.76293" lon="5.45749">
        <ele>319</ele>
        <time>2020-10-21T14:18:47</time>
      </trkpt>
      <trkpt lat="43.76308" lon="5.4574">
        <ele>319</ele>
        <time>2020-10-21T14:18:52</time>
      </trkpt>
      <trkpt lat="43.76318" lon="5.45733">
        <ele>318</ele>
        <time>2020-10-21T14:18:56</time>
      </trkpt>
      <trkpt lat="43.76329" lon="5.45728">
        <ele>318</ele>
        <time>2020-10-21T14:19:00</time>
      </trkpt>
      <trkpt lat="43.76337" lon="5.45723">
        <ele>320</ele>
        <time>2020-10-21T14:19:03</time>
      </trkpt>
      <trkpt lat="43.76355" lon="5.4571">
        <ele>320</ele>
        <time>2020-10-21T14:19:09</time>
      </trkpt>
      <trkpt lat="43.76373" lon="5.45701">
        <ele>322</ele>
        <time>2020-10-21T14:19:14</time>
      </trkpt>
      <trkpt lat="43.7639" lon="5.4569">
        <ele>321</ele>
        <time>2020-10-21T14:19:19</time>
      </trkpt>
      <trkpt lat="43.76408" lon="5.4568">
        <ele>321</ele>
        <time>2020-10-21T14:19:25</time>
      </trkpt>
      <trkpt lat="43.76426" lon="5.45669">
        <ele>320</ele>
        <time>2020-10-21T14:19:32</time>
      </trkpt>
      <trkpt lat="43.76445" lon="5.45657">
        <ele>320</ele>
        <time>2020-10-21T14:19:39</time>
      </trkpt>
      <trkpt lat="43.7646" lon="5.45645">
        <ele>321</ele>
        <time>2020-10-21T14:19:45</time>
      </trkpt>
      <trkpt lat="43.76478" lon="5.45632">
        <ele>322</ele>
        <time>2020-10-21T14:19:52</time>
      </trkpt>
      <trkpt lat="43.76498" lon="5.45622">
        <ele>324</ele>
        <time>2020-10-21T14:19:59</time>
      </trkpt>
      <trkpt lat="43.76515" lon="5.45615">
        <ele>325</ele>
        <time>2020-10-21T14:20:05</time>
      </trkpt>
      <trkpt lat="43.76535" lon="5.45609">
        <ele>324</ele>
        <time>2020-10-21T14:20:12</time>
      </trkpt>
      <trkpt lat="43.76553" lon="5.45604">
        <ele>325</ele>
        <time>2020-10-21T14:20:18</time>
      </trkpt>
      <trkpt lat="43.76571" lon="5.456">
        <ele>325</ele>
        <time>2020-10-21T14:20:25</time>
      </trkpt>
      <trkpt lat="43.76591" lon="5.45596">
        <ele>324</ele>
        <time>2020-10-21T14:20:33</time>
      </trkpt>
      <trkpt lat="43.76608" lon="5.45589">
        <ele>326</ele>
        <time>2020-10-21T14:20:40</time>
      </trkpt>
      <trkpt lat="43.76626" lon="5.45581">
        <ele>325</ele>
        <time>2020-10-21T14:20:47</time>
      </trkpt>
      <trkpt lat="43.76643" lon="5.45572">
        <ele>327</ele>
        <time>2020-10-21T14:20:54</time>
      </trkpt>
      <trkpt lat="43.7666" lon="5.45561">
        <ele>328</ele>
        <time>2020-10-21T14:21:01</time>
      </trkpt>
      <trkpt lat="43.76678" lon="5.45547">
        <ele>328</ele>
        <time>2020-10-21T14:21:08</time>
      </trkpt>
      <trkpt lat="43.76693" lon="5.45532">
        <ele>329</ele>
        <time>2020-10-21T14:21:15</time>
      </trkpt>
      <trkpt lat="43.76711" lon="5.4552">
        <ele>330</ele>
        <time>2020-10-21T14:21:22</time>
      </trkpt>
      <trkpt lat="43.76728" lon="5.45508">
        <ele>328</ele>
        <time>2020-10-21T14:21:29</time>
      </trkpt>
      <trkpt lat="43.76746" lon="5.45499">
        <ele>330</ele>
        <time>2020-10-21T14:21:35</time>
      </trkpt>
      <trkpt lat="43.76757" lon="5.45492">
        <ele>329</ele>
        <time>2020-10-21T14:21:39</time>
      </trkpt>
      <trkpt lat="43.76766" lon="5.45486">
        <ele>329</ele>
        <time>2020-10-21T14:21:42</time>
      </trkpt>
      <trkpt lat="43.76775" lon="5.45479">
        <ele>329</ele>
        <time>2020-10-21T14:21:45</time>
      </trkpt>
      <trkpt lat="43.76786" lon="5.45474">
        <ele>328</ele>
        <time>2020-10-21T14:21:48</time>
      </trkpt>
      <trkpt lat="43.76797" lon="5.45471">
        <ele>329</ele>
        <time>2020-10-21T14:21:51</time>
      </trkpt>
      <trkpt lat="43.76807" lon="5.45468">
        <ele>329</ele>
        <time>2020-10-21T14:21:54</time>
      </trkpt>
      <trkpt lat="43.76817" lon="5.45469">
        <ele>328</ele>
        <time>2020-10-21T14:21:58</time>
      </trkpt>
      <trkpt lat="43.76826" lon="5.45469">
        <ele>328</ele>
        <time>2020-10-21T14:22:02</time>
      </trkpt>
      <trkpt lat="43.76838" lon="5.45466">
        <ele>328</ele>
        <time>2020-10-21T14:22:06</time>
      </trkpt>
      <trkpt lat="43.76856" lon="5.45463">
        <ele>329</ele>
        <time>2020-10-21T14:22:13</time>
      </trkpt>
      <trkpt lat="43.76874" lon="5.45464">
        <ele>331</ele>
        <time>2020-10-21T14:22:20</time>
      </trkpt>
      <trkpt lat="43.76892" lon="5.45467">
        <ele>331</ele>
        <time>2020-10-21T14:22:27</time>
      </trkpt>
      <trkpt lat="43.76912" lon="5.4547">
        <ele>332</ele>
        <time>2020-10-21T14:22:35</time>
      </trkpt>
      <trkpt lat="43.76929" lon="5.45473">
        <ele>332</ele>
        <time>2020-10-21T14:22:42</time>
      </trkpt>
      <trkpt lat="43.7694" lon="5.45475">
        <ele>334</ele>
        <time>2020-10-21T14:22:46</time>
      </trkpt>
      <trkpt lat="43.76951" lon="5.45475">
        <ele>335</ele>
        <time>2020-10-21T14:22:50</time>
      </trkpt>
      <trkpt lat="43.76971" lon="5.45476">
        <ele>337</ele>
        <time>2020-10-21T14:22:57</time>
      </trkpt>
      <trkpt lat="43.76989" lon="5.45482">
        <ele>336</ele>
        <time>2020-10-21T14:23:05</time>
      </trkpt>
      <trkpt lat="43.77009" lon="5.45484">
        <ele>337</ele>
        <time>2020-10-21T14:23:13</time>
      </trkpt>
      <trkpt lat="43.77027" lon="5.45486">
        <ele>340</ele>
        <time>2020-10-21T14:23:20</time>
      </trkpt>
      <trkpt lat="43.77048" lon="5.45488">
        <ele>340</ele>
        <time>2020-10-21T14:23:28</time>
      </trkpt>
      <trkpt lat="43.77067" lon="5.45492">
        <ele>340</ele>
        <time>2020-10-21T14:23:36</time>
      </trkpt>
      <trkpt lat="43.77085" lon="5.45493">
        <ele>341</ele>
        <time>2020-10-21T14:23:43</time>
      </trkpt>
      <trkpt lat="43.77104" lon="5.45488">
        <ele>341</ele>
        <time>2020-10-21T14:23:51</time>
      </trkpt>
      <trkpt lat="43.77124" lon="5.45482">
        <ele>342</ele>
        <time>2020-10-21T14:23:59</time>
      </trkpt>
      <trkpt lat="43.77141" lon="5.45478">
        <ele>341</ele>
        <time>2020-10-21T14:24:06</time>
      </trkpt>
      <trkpt lat="43.77159" lon="5.45473">
        <ele>343</ele>
        <time>2020-10-21T14:24:13</time>
      </trkpt>
      <trkpt lat="43.77177" lon="5.45465">
        <ele>344</ele>
        <time>2020-10-21T14:24:20</time>
      </trkpt>
      <trkpt lat="43.77196" lon="5.45464">
        <ele>343</ele>
        <time>2020-10-21T14:24:27</time>
      </trkpt>
      <trkpt lat="43.77215" lon="5.45463">
        <ele>344</ele>
        <time>2020-10-21T14:24:34</time>
      </trkpt>
      <trkpt lat="43.77233" lon="5.4546">
        <ele>345</ele>
        <time>2020-10-21T14:24:42</time>
      </trkpt>
      <trkpt lat="43.77251" lon="5.45465">
        <ele>345</ele>
        <time>2020-10-21T14:24:49</time>
      </trkpt>
      <trkpt lat="43.7726" lon="5.45487">
        <ele>347</ele>
        <time>2020-10-21T14:24:56</time>
      </trkpt>
      <trkpt lat="43.7728" lon="5.45494">
        <ele>347</ele>
        <time>2020-10-21T14:25:05</time>
      </trkpt>
      <trkpt lat="43.773" lon="5.45498">
        <ele>348</ele>
        <time>2020-10-21T14:25:13</time>
      </trkpt>
      <trkpt lat="43.7732" lon="5.45505">
        <ele>349</ele>
        <time>2020-10-21T14:25:21</time>
      </trkpt>
      <trkpt lat="43.77337" lon="5.45513">
        <ele>348</ele>
        <time>2020-10-21T14:25:29</time>
      </trkpt>
      <trkpt lat="43.77353" lon="5.45523">
        <ele>350</ele>
        <time>2020-10-21T14:25:37</time>
      </trkpt>
      <trkpt lat="43.77372" lon="5.45531">
        <ele>351</ele>
        <time>2020-10-21T14:25:44</time>
      </trkpt>
      <trkpt lat="43.7739" lon="5.45541">
        <ele>351</ele>
        <time>2020-10-21T14:25:52</time>
      </trkpt>
      <trkpt lat="43.77408" lon="5.45548">
        <ele>354</ele>
        <time>2020-10-21T14:26:00</time>
      </trkpt>
      <trkpt lat="43.77426" lon="5.45555">
        <ele>355</ele>
        <time>2020-10-21T14:26:07</time>
      </trkpt>
      <trkpt lat="43.77443" lon="5.45565">
        <ele>355</ele>
        <time>2020-10-21T14:26:16</time>
      </trkpt>
      <trkpt lat="43.77461" lon="5.45574">
        <ele>355</ele>
        <time>2020-10-21T14:26:26</time>
      </trkpt>
      <trkpt lat="43.77481" lon="5.45569">
        <ele>357</ele>
        <time>2020-10-21T14:26:34</time>
      </trkpt>
      <trkpt lat="43.775" lon="5.45564">
        <ele>358</ele>
        <time>2020-10-21T14:26:41</time>
      </trkpt>
      <trkpt lat="43.7752" lon="5.45561">
        <ele>359</ele>
        <time>2020-10-21T14:26:49</time>
      </trkpt>
      <trkpt lat="43.77539" lon="5.45558">
        <ele>360</ele>
        <time>2020-10-21T14:26:56</time>
      </trkpt>
      <trkpt lat="43.77558" lon="5.45553">
        <ele>359</ele>
        <time>2020-10-21T14:27:04</time>
      </trkpt>
      <trkpt lat="43.77578" lon="5.45551">
        <ele>359</ele>
        <time>2020-10-21T14:27:13</time>
      </trkpt>
      <trkpt lat="43.77596" lon="5.45551">
        <ele>360</ele>
        <time>2020-10-21T14:27:21</time>
      </trkpt>
      <trkpt lat="43.77614" lon="5.45549">
        <ele>361</ele>
        <time>2020-10-21T14:27:28</time>
      </trkpt>
      <trkpt lat="43.77632" lon="5.45549">
        <ele>360</ele>
        <time>2020-10-21T14:27:35</time>
      </trkpt>
      <trkpt lat="43.77651" lon="5.45548">
        <ele>362</ele>
        <time>2020-10-21T14:27:42</time>
      </trkpt>
      <trkpt lat="43.77669" lon="5.45546">
        <ele>365</ele>
        <time>2020-10-21T14:27:49</time>
      </trkpt>
      <trkpt lat="43.77688" lon="5.45547">
        <ele>366</ele>
        <time>2020-10-21T14:27:56</time>
      </trkpt>
      <trkpt lat="43.77707" lon="5.45552">
        <ele>366</ele>
        <time>2020-10-21T14:28:05</time>
      </trkpt>
      <trkpt lat="43.77725" lon="5.45562">
        <ele>367</ele>
        <time>2020-10-21T14:28:15</time>
      </trkpt>
      <trkpt lat="43.77744" lon="5.45565">
        <ele>368</ele>
        <time>2020-10-21T14:28:24</time>
      </trkpt>
      <trkpt lat="43.77763" lon="5.45571">
        <ele>368</ele>
        <time>2020-10-21T14:28:34</time>
      </trkpt>
      <trkpt lat="43.77782" lon="5.45574">
        <ele>369</ele>
        <time>2020-10-21T14:28:43</time>
      </trkpt>
      <trkpt lat="43.77801" lon="5.45583">
        <ele>371</ele>
        <time>2020-10-21T14:28:53</time>
      </trkpt>
      <trkpt lat="43.7782" lon="5.45587">
        <ele>372</ele>
        <time>2020-10-21T14:29:02</time>
      </trkpt>
      <trkpt lat="43.77839" lon="5.45594">
        <ele>372</ele>
        <time>2020-10-21T14:29:12</time>
      </trkpt>
      <trkpt lat="43.77857" lon="5.45599">
        <ele>374</ele>
        <time>2020-10-21T14:29:20</time>
      </trkpt>
      <trkpt lat="43.77875" lon="5.45604">
        <ele>375</ele>
        <time>2020-10-21T14:29:28</time>
      </trkpt>
      <trkpt lat="43.77893" lon="5.45609">
        <ele>374</ele>
        <time>2020-10-21T14:29:36</time>
      </trkpt>
      <trkpt lat="43.77912" lon="5.45615">
        <ele>375</ele>
        <time>2020-10-21T14:29:45</time>
      </trkpt>
      <trkpt lat="43.7793" lon="5.4562">
        <ele>379</ele>
        <time>2020-10-21T14:29:53</time>
      </trkpt>
      <trkpt lat="43.77949" lon="5.45624">
        <ele>378</ele>
        <time>2020-10-21T14:30:00</time>
      </trkpt>
      <trkpt lat="43.77968" lon="5.45628">
        <ele>378</ele>
        <time>2020-10-21T14:30:09</time>
      </trkpt>
      <trkpt lat="43.77986" lon="5.45633">
        <ele>380</ele>
        <time>2020-10-21T14:30:18</time>
      </trkpt>
      <trkpt lat="43.78005" lon="5.45637">
        <ele>383</ele>
        <time>2020-10-21T14:30:27</time>
      </trkpt>
      <trkpt lat="43.78024" lon="5.45642">
        <ele>384</ele>
        <time>2020-10-21T14:30:36</time>
      </trkpt>
      <trkpt lat="43.78042" lon="5.45647">
        <ele>385</ele>
        <time>2020-10-21T14:30:45</time>
      </trkpt>
      <trkpt lat="43.78061" lon="5.45654">
        <ele>387</ele>
        <time>2020-10-21T14:30:55</time>
      </trkpt>
      <trkpt lat="43.78079" lon="5.45658">
        <ele>389</ele>
        <time>2020-10-21T14:31:03</time>
      </trkpt>
      <trkpt lat="43.78097" lon="5.45661">
        <ele>389</ele>
        <time>2020-10-21T14:31:10</time>
      </trkpt>
      <trkpt lat="43.78116" lon="5.45665">
        <ele>389</ele>
        <time>2020-10-21T14:31:19</time>
      </trkpt>
      <trkpt lat="43.78136" lon="5.45667">
        <ele>390</ele>
        <time>2020-10-21T14:31:29</time>
      </trkpt>
      <trkpt lat="43.78154" lon="5.45671">
        <ele>392</ele>
        <time>2020-10-21T14:31:37</time>
      </trkpt>
      <trkpt lat="43.78173" lon="5.45677">
        <ele>393</ele>
        <time>2020-10-21T14:31:46</time>
      </trkpt>
      <trkpt lat="43.78192" lon="5.45679">
        <ele>394</ele>
        <time>2020-10-21T14:31:55</time>
      </trkpt>
      <trkpt lat="43.78211" lon="5.45682">
        <ele>396</ele>
        <time>2020-10-21T14:32:04</time>
      </trkpt>
      <trkpt lat="43.78229" lon="5.45693">
        <ele>395</ele>
        <time>2020-10-21T14:32:15</time>
      </trkpt>
      <trkpt lat="43.78248" lon="5.45697">
        <ele>397</ele>
        <time>2020-10-21T14:32:24</time>
      </trkpt>
      <trkpt lat="43.78268" lon="5.45703">
        <ele>398</ele>
        <time>2020-10-21T14:32:33</time>
      </trkpt>
      <trkpt lat="43.78287" lon="5.45712">
        <ele>399</ele>
        <time>2020-10-21T14:32:43</time>
      </trkpt>
      <trkpt lat="43.78304" lon="5.4572">
        <ele>399</ele>
        <time>2020-10-21T14:32:52</time>
      </trkpt>
      <trkpt lat="43.78322" lon="5.45727">
        <ele>401</ele>
        <time>2020-10-21T14:33:01</time>
      </trkpt>
      <trkpt lat="43.78339" lon="5.45737">
        <ele>403</ele>
        <time>2020-10-21T14:33:10</time>
      </trkpt>
      <trkpt lat="43.78357" lon="5.45742">
        <ele>405</ele>
        <time>2020-10-21T14:33:19</time>
      </trkpt>
      <trkpt lat="43.78376" lon="5.45744">
        <ele>406</ele>
        <time>2020-10-21T14:33:29</time>
      </trkpt>
      <trkpt lat="43.78394" lon="5.45749">
        <ele>408</ele>
        <time>2020-10-21T14:33:40</time>
      </trkpt>
      <trkpt lat="43.78413" lon="5.45751">
        <ele>410</ele>
        <time>2020-10-21T14:33:51</time>
      </trkpt>
      <trkpt lat="43.78432" lon="5.45756">
        <ele>412</ele>
        <time>2020-10-21T14:34:03</time>
      </trkpt>
      <trkpt lat="43.78452" lon="5.45756">
        <ele>416</ele>
        <time>2020-10-21T14:34:13</time>
      </trkpt>
      <trkpt lat="43.78471" lon="5.45757">
        <ele>414</ele>
        <time>2020-10-21T14:34:26</time>
      </trkpt>
      <trkpt lat="43.78489" lon="5.45755">
        <ele>415</ele>
        <time>2020-10-21T14:34:37</time>
      </trkpt>
      <trkpt lat="43.78508" lon="5.45757">
        <ele>416</ele>
        <time>2020-10-21T14:34:47</time>
      </trkpt>
      <trkpt lat="43.78527" lon="5.45757">
        <ele>419</ele>
        <time>2020-10-21T14:34:59</time>
      </trkpt>
      <trkpt lat="43.78546" lon="5.4576">
        <ele>421</ele>
        <time>2020-10-21T14:35:11</time>
      </trkpt>
      <trkpt lat="43.78564" lon="5.45758">
        <ele>423</ele>
        <time>2020-10-21T14:35:22</time>
      </trkpt>
      <trkpt lat="43.7858" lon="5.45747">
        <ele>424</ele>
        <time>2020-10-21T14:35:33</time>
      </trkpt>
      <trkpt lat="43.78599" lon="5.4574">
        <ele>427</ele>
        <time>2020-10-21T14:35:44</time>
      </trkpt>
      <trkpt lat="43.78617" lon="5.45731">
        <ele>428</ele>
        <time>2020-10-21T14:35:55</time>
      </trkpt>
      <trkpt lat="43.78635" lon="5.45729">
        <ele>430</ele>
        <time>2020-10-21T14:36:08</time>
      </trkpt>
      <trkpt lat="43.78645" lon="5.45728">
        <ele>429</ele>
        <time>2020-10-21T14:37:14</time>
      </trkpt>
      <trkpt lat="43.78656" lon="5.45727">
        <ele>430</ele>
        <time>2020-10-21T14:37:20</time>
      </trkpt>
      <trkpt lat="43.78666" lon="5.45727">
        <ele>430</ele>
        <time>2020-10-21T14:37:25</time>
      </trkpt>
      <trkpt lat="43.78676" lon="5.45728">
        <ele>430</ele>
        <time>2020-10-21T14:37:30</time>
      </trkpt>
      <trkpt lat="43.78686" lon="5.4573">
        <ele>431</ele>
        <time>2020-10-21T14:37:35</time>
      </trkpt>
      <trkpt lat="43.78705" lon="5.45729">
        <ele>431</ele>
        <time>2020-10-21T14:37:44</time>
      </trkpt>
      <trkpt lat="43.78725" lon="5.45727">
        <ele>432</ele>
        <time>2020-10-21T14:37:54</time>
      </trkpt>
      <trkpt lat="43.78743" lon="5.45724">
        <ele>432</ele>
        <time>2020-10-21T14:38:04</time>
      </trkpt>
      <trkpt lat="43.78762" lon="5.45722">
        <ele>433</ele>
        <time>2020-10-21T14:38:14</time>
      </trkpt>
      <trkpt lat="43.7878" lon="5.45722">
        <ele>433</ele>
        <time>2020-10-21T14:38:23</time>
      </trkpt>
      <trkpt lat="43.78799" lon="5.4572">
        <ele>434</ele>
        <time>2020-10-21T14:38:32</time>
      </trkpt>
      <trkpt lat="43.78819" lon="5.45717">
        <ele>436</ele>
        <time>2020-10-21T14:38:42</time>
      </trkpt>
      <trkpt lat="43.78836" lon="5.45711">
        <ele>436</ele>
        <time>2020-10-21T14:38:52</time>
      </trkpt>
      <trkpt lat="43.78854" lon="5.45702">
        <ele>436</ele>
        <time>2020-10-21T14:39:03</time>
      </trkpt>
      <trkpt lat="43.7887" lon="5.45688">
        <ele>436</ele>
        <time>2020-10-21T14:39:14</time>
      </trkpt>
      <trkpt lat="43.78883" lon="5.45669">
        <ele>437</ele>
        <time>2020-10-21T14:39:25</time>
      </trkpt>
      <trkpt lat="43.78896" lon="5.4565">
        <ele>439</ele>
        <time>2020-10-21T14:39:36</time>
      </trkpt>
      <trkpt lat="43.78906" lon="5.45629">
        <ele>440</ele>
        <time>2020-10-21T14:39:46</time>
      </trkpt>
      <trkpt lat="43.78919" lon="5.45608">
        <ele>439</ele>
        <time>2020-10-21T14:39:57</time>
      </trkpt>
      <trkpt lat="43.78936" lon="5.45595">
        <ele>440</ele>
        <time>2020-10-21T14:40:08</time>
      </trkpt>
      <trkpt lat="43.78951" lon="5.45579">
        <ele>441</ele>
        <time>2020-10-21T14:40:20</time>
      </trkpt>
      <trkpt lat="43.78965" lon="5.45563">
        <ele>442</ele>
        <time>2020-10-21T14:40:31</time>
      </trkpt>
      <trkpt lat="43.78977" lon="5.45544">
        <ele>443</ele>
        <time>2020-10-21T14:40:42</time>
      </trkpt>
      <trkpt lat="43.78988" lon="5.45522">
        <ele>444</ele>
        <time>2020-10-21T14:40:53</time>
      </trkpt>
      <trkpt lat="43.79001" lon="5.45501">
        <ele>444</ele>
        <time>2020-10-21T14:41:05</time>
      </trkpt>
      <trkpt lat="43.79016" lon="5.45488">
        <ele>446</ele>
        <time>2020-10-21T14:41:16</time>
      </trkpt>
      <trkpt lat="43.7903" lon="5.45471">
        <ele>446</ele>
        <time>2020-10-21T14:41:27</time>
      </trkpt>
      <trkpt lat="43.7904" lon="5.45448">
        <ele>448</ele>
        <time>2020-10-21T14:41:38</time>
      </trkpt>
      <trkpt lat="43.79051" lon="5.45428">
        <ele>445</ele>
        <time>2020-10-21T14:41:49</time>
      </trkpt>
      <trkpt lat="43.79069" lon="5.45416">
        <ele>447</ele>
        <time>2020-10-21T14:42:00</time>
      </trkpt>
      <trkpt lat="43.79083" lon="5.45402">
        <ele>449</ele>
        <time>2020-10-21T14:42:10</time>
      </trkpt>
      <trkpt lat="43.79095" lon="5.4538">
        <ele>450</ele>
        <time>2020-10-21T14:42:21</time>
      </trkpt>
      <trkpt lat="43.79104" lon="5.45358">
        <ele>451</ele>
        <time>2020-10-21T14:42:31</time>
      </trkpt>
      <trkpt lat="43.79111" lon="5.45335">
        <ele>452</ele>
        <time>2020-10-21T14:42:42</time>
      </trkpt>
      <trkpt lat="43.79117" lon="5.45325">
        <ele>452</ele>
        <time>2020-10-21T14:42:47</time>
      </trkpt>
      <trkpt lat="43.7912" lon="5.45313">
        <ele>452</ele>
        <time>2020-10-21T14:42:52</time>
      </trkpt>
      <trkpt lat="43.79127" lon="5.45303">
        <ele>454</ele>
        <time>2020-10-21T14:42:58</time>
      </trkpt>
      <trkpt lat="43.79132" lon="5.45291">
        <ele>454</ele>
        <time>2020-10-21T14:43:04</time>
      </trkpt>
      <trkpt lat="43.79139" lon="5.45281">
        <ele>453</ele>
        <time>2020-10-21T14:43:10</time>
      </trkpt>
      <trkpt lat="43.79144" lon="5.45272">
        <ele>454</ele>
        <time>2020-10-21T14:43:16</time>
      </trkpt>
      <trkpt lat="43.79152" lon="5.45264">
        <ele>454</ele>
        <time>2020-10-21T14:43:22</time>
      </trkpt>
      <trkpt lat="43.7916" lon="5.45258">
        <ele>454</ele>
        <time>2020-10-21T14:43:27</time>
      </trkpt>
      <trkpt lat="43.79169" lon="5.45251">
        <ele>454</ele>
        <time>2020-10-21T14:43:33</time>
      </trkpt>
      <trkpt lat="43.79178" lon="5.45245">
        <ele>454</ele>
        <time>2020-10-21T14:43:39</time>
      </trkpt>
      <trkpt lat="43.79187" lon="5.45241">
        <ele>455</ele>
        <time>2020-10-21T14:43:44</time>
      </trkpt>
      <trkpt lat="43.79197" lon="5.45239">
        <ele>455</ele>
        <time>2020-10-21T14:43:49</time>
      </trkpt>
      <trkpt lat="43.79216" lon="5.45232">
        <ele>456</ele>
        <time>2020-10-21T14:43:59</time>
      </trkpt>
      <trkpt lat="43.79234" lon="5.45224">
        <ele>457</ele>
        <time>2020-10-21T14:44:10</time>
      </trkpt>
      <trkpt lat="43.79252" lon="5.45219">
        <ele>458</ele>
        <time>2020-10-21T14:44:21</time>
      </trkpt>
      <trkpt lat="43.7927" lon="5.45214">
        <ele>460</ele>
        <time>2020-10-21T14:44:32</time>
      </trkpt>
      <trkpt lat="43.79287" lon="5.45204">
        <ele>462</ele>
        <time>2020-10-21T14:44:44</time>
      </trkpt>
      <trkpt lat="43.79305" lon="5.45194">
        <ele>463</ele>
        <time>2020-10-21T14:44:56</time>
      </trkpt>
      <trkpt lat="43.79318" lon="5.45174">
        <ele>466</ele>
        <time>2020-10-21T14:45:08</time>
      </trkpt>
      <trkpt lat="43.79324" lon="5.4515">
        <ele>467</ele>
        <time>2020-10-21T14:45:20</time>
      </trkpt>
      <trkpt lat="43.79331" lon="5.45125">
        <ele>468</ele>
        <time>2020-10-21T14:45:34</time>
      </trkpt>
      <trkpt lat="43.79345" lon="5.45108">
        <ele>469</ele>
        <time>2020-10-21T14:45:50</time>
      </trkpt>
      <trkpt lat="43.79352" lon="5.45097">
        <ele>470</ele>
        <time>2020-10-21T14:45:58</time>
      </trkpt>
      <trkpt lat="43.79356" lon="5.45085">
        <ele>471</ele>
        <time>2020-10-21T14:46:05</time>
      </trkpt>
      <trkpt lat="43.79358" lon="5.45072">
        <ele>472</ele>
        <time>2020-10-21T14:46:12</time>
      </trkpt>
      <trkpt lat="43.7936" lon="5.45058">
        <ele>473</ele>
        <time>2020-10-21T14:46:20</time>
      </trkpt>
      <trkpt lat="43.79363" lon="5.45045">
        <ele>475</ele>
        <time>2020-10-21T14:46:27</time>
      </trkpt>
      <trkpt lat="43.79366" lon="5.45032">
        <ele>475</ele>
        <time>2020-10-21T14:46:34</time>
      </trkpt>
      <trkpt lat="43.7937" lon="5.45019">
        <ele>475</ele>
        <time>2020-10-21T14:46:41</time>
      </trkpt>
      <trkpt lat="43.79371" lon="5.45005">
        <ele>482</ele>
        <time>2020-10-21T14:47:01</time>
      </trkpt>
      <trkpt lat="43.79376" lon="5.44988">
        <ele>481</ele>
        <time>2020-10-21T14:49:19</time>
      </trkpt>
      <trkpt lat="43.79379" lon="5.44974">
        <ele>483</ele>
        <time>2020-10-21T14:49:26</time>
      </trkpt>
      <trkpt lat="43.79382" lon="5.44963">
        <ele>487</ele>
        <time>2020-10-21T14:49:33</time>
      </trkpt>
      <trkpt lat="43.79389" lon="5.44954">
        <ele>488</ele>
        <time>2020-10-21T14:49:42</time>
      </trkpt>
      <trkpt lat="43.79393" lon="5.4494">
        <ele>489</ele>
        <time>2020-10-21T14:49:49</time>
      </trkpt>
      <trkpt lat="43.79398" lon="5.44928">
        <ele>489</ele>
        <time>2020-10-21T14:49:55</time>
      </trkpt>
      <trkpt lat="43.79403" lon="5.44918">
        <ele>490</ele>
        <time>2020-10-21T14:50:03</time>
      </trkpt>
      <trkpt lat="43.7941" lon="5.44907">
        <ele>489</ele>
        <time>2020-10-21T14:50:11</time>
      </trkpt>
      <trkpt lat="43.79414" lon="5.44896">
        <ele>489</ele>
        <time>2020-10-21T14:50:18</time>
      </trkpt>
      <trkpt lat="43.79415" lon="5.44884">
        <ele>491</ele>
        <time>2020-10-21T14:50:24</time>
      </trkpt>
      <trkpt lat="43.79415" lon="5.44871">
        <ele>491</ele>
        <time>2020-10-21T14:50:31</time>
      </trkpt>
      <trkpt lat="43.79415" lon="5.44858">
        <ele>493</ele>
        <time>2020-10-21T14:50:38</time>
      </trkpt>
      <trkpt lat="43.79418" lon="5.44845">
        <ele>492</ele>
        <time>2020-10-21T14:50:47</time>
      </trkpt>
      <trkpt lat="43.79422" lon="5.44834">
        <ele>494</ele>
        <time>2020-10-21T14:50:55</time>
      </trkpt>
      <trkpt lat="43.79427" lon="5.44822">
        <ele>493</ele>
        <time>2020-10-21T14:51:02</time>
      </trkpt>
      <trkpt lat="43.79431" lon="5.44811">
        <ele>493</ele>
        <time>2020-10-21T14:51:09</time>
      </trkpt>
      <trkpt lat="43.79436" lon="5.44799">
        <ele>494</ele>
        <time>2020-10-21T14:51:17</time>
      </trkpt>
      <trkpt lat="43.79441" lon="5.44788">
        <ele>493</ele>
        <time>2020-10-21T14:51:23</time>
      </trkpt>
      <trkpt lat="43.79443" lon="5.44775">
        <ele>494</ele>
        <time>2020-10-21T14:51:30</time>
      </trkpt>
      <trkpt lat="43.79445" lon="5.44763">
        <ele>494</ele>
        <time>2020-10-21T14:51:37</time>
      </trkpt>
      <trkpt lat="43.79447" lon="5.4475">
        <ele>495</ele>
        <time>2020-10-21T14:51:44</time>
      </trkpt>
      <trkpt lat="43.79449" lon="5.44736">
        <ele>496</ele>
        <time>2020-10-21T14:51:52</time>
      </trkpt>
      <trkpt lat="43.7945" lon="5.44723">
        <ele>496</ele>
        <time>2020-10-21T14:51:59</time>
      </trkpt>
      <trkpt lat="43.79449" lon="5.44711">
        <ele>498</ele>
        <time>2020-10-21T14:52:06</time>
      </trkpt>
      <trkpt lat="43.79447" lon="5.44698">
        <ele>498</ele>
        <time>2020-10-21T14:52:13</time>
      </trkpt>
      <trkpt lat="43.79446" lon="5.44685">
        <ele>499</ele>
        <time>2020-10-21T14:52:20</time>
      </trkpt>
      <trkpt lat="43.79444" lon="5.44672">
        <ele>501</ele>
        <time>2020-10-21T14:52:28</time>
      </trkpt>
      <trkpt lat="43.79443" lon="5.44659">
        <ele>502</ele>
        <time>2020-10-21T14:52:35</time>
      </trkpt>
      <trkpt lat="43.79441" lon="5.44646">
        <ele>505</ele>
        <time>2020-10-21T14:52:42</time>
      </trkpt>
      <trkpt lat="43.7944" lon="5.44633">
        <ele>504</ele>
        <time>2020-10-21T14:52:49</time>
      </trkpt>
      <trkpt lat="43.79438" lon="5.44619">
        <ele>507</ele>
        <time>2020-10-21T14:52:57</time>
      </trkpt>
      <trkpt lat="43.79435" lon="5.44606">
        <ele>507</ele>
        <time>2020-10-21T14:53:04</time>
      </trkpt>
      <trkpt lat="43.79431" lon="5.44593">
        <ele>507</ele>
        <time>2020-10-21T14:53:12</time>
      </trkpt>
      <trkpt lat="43.79428" lon="5.44581">
        <ele>511</ele>
        <time>2020-10-21T14:53:19</time>
      </trkpt>
      <trkpt lat="43.79425" lon="5.44569">
        <ele>511</ele>
        <time>2020-10-21T14:53:26</time>
      </trkpt>
      <trkpt lat="43.79421" lon="5.44557">
        <ele>512</ele>
        <time>2020-10-21T14:53:33</time>
      </trkpt>
      <trkpt lat="43.79418" lon="5.44545">
        <ele>513</ele>
        <time>2020-10-21T14:53:40</time>
      </trkpt>
      <trkpt lat="43.79415" lon="5.44533">
        <ele>513</ele>
        <time>2020-10-21T14:53:47</time>
      </trkpt>
      <trkpt lat="43.79414" lon="5.44519">
        <ele>514</ele>
        <time>2020-10-21T14:53:54</time>
      </trkpt>
      <trkpt lat="43.79415" lon="5.44506">
        <ele>514</ele>
        <time>2020-10-21T14:54:01</time>
      </trkpt>
      <trkpt lat="43.79416" lon="5.44492">
        <ele>515</ele>
        <time>2020-10-21T14:54:09</time>
      </trkpt>
      <trkpt lat="43.79418" lon="5.44479">
        <ele>516</ele>
        <time>2020-10-21T14:54:16</time>
      </trkpt>
      <trkpt lat="43.79421" lon="5.44465">
        <ele>517</ele>
        <time>2020-10-21T14:54:23</time>
      </trkpt>
      <trkpt lat="43.79425" lon="5.44453">
        <ele>520</ele>
        <time>2020-10-21T14:54:30</time>
      </trkpt>
      <trkpt lat="43.79433" lon="5.44446">
        <ele>520</ele>
        <time>2020-10-21T14:54:37</time>
      </trkpt>
      <trkpt lat="43.79442" lon="5.4444">
        <ele>522</ele>
        <time>2020-10-21T14:54:43</time>
      </trkpt>
      <trkpt lat="43.79451" lon="5.44433">
        <ele>523</ele>
        <time>2020-10-21T14:54:50</time>
      </trkpt>
      <trkpt lat="43.79458" lon="5.44426">
        <ele>523</ele>
        <time>2020-10-21T14:54:56</time>
      </trkpt>
      <trkpt lat="43.79466" lon="5.44418">
        <ele>524</ele>
        <time>2020-10-21T14:55:01</time>
      </trkpt>
      <trkpt lat="43.79474" lon="5.4441">
        <ele>526</ele>
        <time>2020-10-21T14:55:08</time>
      </trkpt>
      <trkpt lat="43.79483" lon="5.444">
        <ele>528</ele>
        <time>2020-10-21T14:56:16</time>
      </trkpt>
      <trkpt lat="43.79486" lon="5.44385">
        <ele>528</ele>
        <time>2020-10-21T14:56:22</time>
      </trkpt>
      <trkpt lat="43.7949" lon="5.44372">
        <ele>528</ele>
        <time>2020-10-21T14:56:25</time>
      </trkpt>
      <trkpt lat="43.79495" lon="5.44361">
        <ele>528</ele>
        <time>2020-10-21T14:56:30</time>
      </trkpt>
      <trkpt lat="43.79499" lon="5.44348">
        <ele>528</ele>
        <time>2020-10-21T14:56:36</time>
      </trkpt>
      <trkpt lat="43.79496" lon="5.44335">
        <ele>527</ele>
        <time>2020-10-21T14:56:40</time>
      </trkpt>
      <trkpt lat="43.79495" lon="5.44322">
        <ele>526</ele>
        <time>2020-10-21T14:56:45</time>
      </trkpt>
      <trkpt lat="43.79494" lon="5.44308">
        <ele>526</ele>
        <time>2020-10-21T14:56:50</time>
      </trkpt>
      <trkpt lat="43.79492" lon="5.44294">
        <ele>525</ele>
        <time>2020-10-21T14:56:55</time>
      </trkpt>
      <trkpt lat="43.79495" lon="5.44282">
        <ele>524</ele>
        <time>2020-10-21T14:57:00</time>
      </trkpt>
      <trkpt lat="43.79498" lon="5.4427">
        <ele>523</ele>
        <time>2020-10-21T14:57:04</time>
      </trkpt>
      <trkpt lat="43.79501" lon="5.44246">
        <ele>521</ele>
        <time>2020-10-21T14:57:11</time>
      </trkpt>
      <trkpt lat="43.79503" lon="5.44231">
        <ele>520</ele>
        <time>2020-10-21T14:57:15</time>
      </trkpt>
      <trkpt lat="43.79508" lon="5.44221">
        <ele>519</ele>
        <time>2020-10-21T14:57:18</time>
      </trkpt>
      <trkpt lat="43.79518" lon="5.4421">
        <ele>518</ele>
        <time>2020-10-21T14:57:21</time>
      </trkpt>
      <trkpt lat="43.79527" lon="5.44201">
        <ele>518</ele>
        <time>2020-10-21T14:57:24</time>
      </trkpt>
      <trkpt lat="43.79532" lon="5.44189">
        <ele>519</ele>
        <time>2020-10-21T14:57:29</time>
      </trkpt>
      <trkpt lat="43.79534" lon="5.44176">
        <ele>518</ele>
        <time>2020-10-21T14:57:34</time>
      </trkpt>
      <trkpt lat="43.79526" lon="5.44165">
        <ele>517</ele>
        <time>2020-10-21T14:57:38</time>
      </trkpt>
      <trkpt lat="43.7952" lon="5.44154">
        <ele>516</ele>
        <time>2020-10-21T14:57:42</time>
      </trkpt>
      <trkpt lat="43.79521" lon="5.44126">
        <ele>515</ele>
        <time>2020-10-21T14:57:51</time>
      </trkpt>
      <trkpt lat="43.79522" lon="5.44099">
        <ele>515</ele>
        <time>2020-10-21T14:57:55</time>
      </trkpt>
      <trkpt lat="43.79525" lon="5.44081">
        <ele>515</ele>
        <time>2020-10-21T14:57:57</time>
      </trkpt>
      <trkpt lat="43.79525" lon="5.44065">
        <ele>516</ele>
        <time>2020-10-21T14:58:00</time>
      </trkpt>
      <trkpt lat="43.79514" lon="5.44043">
        <ele>516</ele>
        <time>2020-10-21T14:58:07</time>
      </trkpt>
      <trkpt lat="43.79511" lon="5.44027">
        <ele>516</ele>
        <time>2020-10-21T14:58:11</time>
      </trkpt>
      <trkpt lat="43.7951" lon="5.44014">
        <ele>516</ele>
        <time>2020-10-21T14:58:13</time>
      </trkpt>
      <trkpt lat="43.79508" lon="5.43998">
        <ele>515</ele>
        <time>2020-10-21T14:58:16</time>
      </trkpt>
      <trkpt lat="43.79501" lon="5.43976">
        <ele>514</ele>
        <time>2020-10-21T14:58:21</time>
      </trkpt>
      <trkpt lat="43.79497" lon="5.43962">
        <ele>513</ele>
        <time>2020-10-21T14:58:25</time>
      </trkpt>
      <trkpt lat="43.79492" lon="5.4395">
        <ele>512</ele>
        <time>2020-10-21T14:58:28</time>
      </trkpt>
      <trkpt lat="43.79486" lon="5.43937">
        <ele>510</ele>
        <time>2020-10-21T14:58:33</time>
      </trkpt>
      <trkpt lat="43.79471" lon="5.43916">
        <ele>507</ele>
        <time>2020-10-21T14:58:39</time>
      </trkpt>
      <trkpt lat="43.79455" lon="5.43905">
        <ele>505</ele>
        <time>2020-10-21T14:58:45</time>
      </trkpt>
      <trkpt lat="43.79443" lon="5.43892">
        <ele>503</ele>
        <time>2020-10-21T14:58:50</time>
      </trkpt>
      <trkpt lat="43.79437" lon="5.4388">
        <ele>502</ele>
        <time>2020-10-21T14:58:53</time>
      </trkpt>
      <trkpt lat="43.79432" lon="5.43867">
        <ele>501</ele>
        <time>2020-10-21T14:58:57</time>
      </trkpt>
      <trkpt lat="43.79425" lon="5.4386">
        <ele>499</ele>
        <time>2020-10-21T14:59:00</time>
      </trkpt>
      <trkpt lat="43.79415" lon="5.43854">
        <ele>498</ele>
        <time>2020-10-21T14:59:03</time>
      </trkpt>
      <trkpt lat="43.794" lon="5.43838">
        <ele>497</ele>
        <time>2020-10-21T14:59:05</time>
      </trkpt>
      <trkpt lat="43.79387" lon="5.43822">
        <ele>496</ele>
        <time>2020-10-21T14:59:16</time>
      </trkpt>
      <trkpt lat="43.79368" lon="5.43813">
        <ele>493</ele>
        <time>2020-10-21T14:59:26</time>
      </trkpt>
      <trkpt lat="43.79351" lon="5.43801">
        <ele>490</ele>
        <time>2020-10-21T14:59:35</time>
      </trkpt>
      <trkpt lat="43.79334" lon="5.43792">
        <ele>490</ele>
        <time>2020-10-21T14:59:44</time>
      </trkpt>
      <trkpt lat="43.79318" lon="5.43774">
        <ele>487</ele>
        <time>2020-10-21T14:59:52</time>
      </trkpt>
      <trkpt lat="43.79302" lon="5.43758">
        <ele>486</ele>
        <time>2020-10-21T14:59:58</time>
      </trkpt>
      <trkpt lat="43.79287" lon="5.43745">
        <ele>485</ele>
        <time>2020-10-21T15:00:05</time>
      </trkpt>
      <trkpt lat="43.79269" lon="5.43735">
        <ele>485</ele>
        <time>2020-10-21T15:00:13</time>
      </trkpt>
      <trkpt lat="43.79252" lon="5.43723">
        <ele>481</ele>
        <time>2020-10-21T15:00:20</time>
      </trkpt>
      <trkpt lat="43.79244" lon="5.43715">
        <ele>480</ele>
        <time>2020-10-21T15:00:24</time>
      </trkpt>
      <trkpt lat="43.79238" lon="5.43704">
        <ele>479</ele>
        <time>2020-10-21T15:00:29</time>
      </trkpt>
      <trkpt lat="43.79232" lon="5.43692">
        <ele>479</ele>
        <time>2020-10-21T15:00:35</time>
      </trkpt>
      <trkpt lat="43.79222" lon="5.43687">
        <ele>478</ele>
        <time>2020-10-21T15:00:39</time>
      </trkpt>
      <trkpt lat="43.79215" lon="5.43678">
        <ele>478</ele>
        <time>2020-10-21T15:00:45</time>
      </trkpt>
      <trkpt lat="43.79204" lon="5.43676">
        <ele>478</ele>
        <time>2020-10-21T15:00:50</time>
      </trkpt>
      <trkpt lat="43.79193" lon="5.43673">
        <ele>476</ele>
        <time>2020-10-21T15:00:54</time>
      </trkpt>
      <trkpt lat="43.79176" lon="5.43664">
        <ele>476</ele>
        <time>2020-10-21T15:01:03</time>
      </trkpt>
      <trkpt lat="43.79158" lon="5.43656">
        <ele>475</ele>
        <time>2020-10-21T15:01:14</time>
      </trkpt>
      <trkpt lat="43.79141" lon="5.43646">
        <ele>474</ele>
        <time>2020-10-21T15:01:21</time>
      </trkpt>
      <trkpt lat="43.79132" lon="5.4364">
        <ele>471</ele>
        <time>2020-10-21T15:01:32</time>
      </trkpt>
      <trkpt lat="43.79115" lon="5.43628">
        <ele>468</ele>
        <time>2020-10-21T15:08:53</time>
      </trkpt>
      <trkpt lat="43.79107" lon="5.43622">
        <ele>467</ele>
        <time>2020-10-21T15:08:58</time>
      </trkpt>
      <trkpt lat="43.79099" lon="5.43614">
        <ele>467</ele>
        <time>2020-10-21T15:09:02</time>
      </trkpt>
      <trkpt lat="43.7909" lon="5.43609">
        <ele>466</ele>
        <time>2020-10-21T15:09:05</time>
      </trkpt>
      <trkpt lat="43.7908" lon="5.43607">
        <ele>466</ele>
        <time>2020-10-21T15:09:09</time>
      </trkpt>
      <trkpt lat="43.79072" lon="5.43601">
        <ele>466</ele>
        <time>2020-10-21T15:09:14</time>
      </trkpt>
      <trkpt lat="43.79062" lon="5.43598">
        <ele>465</ele>
        <time>2020-10-21T15:09:19</time>
      </trkpt>
      <trkpt lat="43.79042" lon="5.43587">
        <ele>464</ele>
        <time>2020-10-21T15:09:25</time>
      </trkpt>
      <trkpt lat="43.79025" lon="5.43572">
        <ele>464</ele>
        <time>2020-10-21T15:09:30</time>
      </trkpt>
      <trkpt lat="43.79016" lon="5.43564">
        <ele>464</ele>
        <time>2020-10-21T15:09:32</time>
      </trkpt>
      <trkpt lat="43.79007" lon="5.43554">
        <ele>464</ele>
        <time>2020-10-21T15:09:34</time>
      </trkpt>
      <trkpt lat="43.79003" lon="5.43541">
        <ele>463</ele>
        <time>2020-10-21T15:09:37</time>
      </trkpt>
      <trkpt lat="43.78994" lon="5.4353">
        <ele>463</ele>
        <time>2020-10-21T15:09:41</time>
      </trkpt>
      <trkpt lat="43.78986" lon="5.43522">
        <ele>461</ele>
        <time>2020-10-21T15:09:44</time>
      </trkpt>
      <trkpt lat="43.78981" lon="5.4351">
        <ele>461</ele>
        <time>2020-10-21T15:09:47</time>
      </trkpt>
      <trkpt lat="43.78966" lon="5.43491">
        <ele>461</ele>
        <time>2020-10-21T15:09:53</time>
      </trkpt>
      <trkpt lat="43.78946" lon="5.43485">
        <ele>459</ele>
        <time>2020-10-21T15:09:59</time>
      </trkpt>
      <trkpt lat="43.7893" lon="5.43469">
        <ele>457</ele>
        <time>2020-10-21T15:10:07</time>
      </trkpt>
      <trkpt lat="43.78912" lon="5.43456">
        <ele>455</ele>
        <time>2020-10-21T15:10:15</time>
      </trkpt>
      <trkpt lat="43.78895" lon="5.43446">
        <ele>453</ele>
        <time>2020-10-21T15:10:20</time>
      </trkpt>
      <trkpt lat="43.78878" lon="5.43434">
        <ele>451</ele>
        <time>2020-10-21T15:10:25</time>
      </trkpt>
      <trkpt lat="43.78861" lon="5.43419">
        <ele>450</ele>
        <time>2020-10-21T15:10:31</time>
      </trkpt>
      <trkpt lat="43.78841" lon="5.43407">
        <ele>449</ele>
        <time>2020-10-21T15:10:36</time>
      </trkpt>
      <trkpt lat="43.78821" lon="5.434">
        <ele>447</ele>
        <time>2020-10-21T15:10:42</time>
      </trkpt>
      <trkpt lat="43.78802" lon="5.43398">
        <ele>446</ele>
        <time>2020-10-21T15:10:47</time>
      </trkpt>
      <trkpt lat="43.78784" lon="5.43392">
        <ele>445</ele>
        <time>2020-10-21T15:10:52</time>
      </trkpt>
      <trkpt lat="43.78766" lon="5.43383">
        <ele>441</ele>
        <time>2020-10-21T15:10:57</time>
      </trkpt>
      <trkpt lat="43.78748" lon="5.43377">
        <ele>439</ele>
        <time>2020-10-21T15:11:02</time>
      </trkpt>
      <trkpt lat="43.78728" lon="5.43365">
        <ele>437</ele>
        <time>2020-10-21T15:11:08</time>
      </trkpt>
      <trkpt lat="43.7871" lon="5.43362">
        <ele>434</ele>
        <time>2020-10-21T15:11:13</time>
      </trkpt>
      <trkpt lat="43.78689" lon="5.4336">
        <ele>433</ele>
        <time>2020-10-21T15:11:18</time>
      </trkpt>
      <trkpt lat="43.78669" lon="5.43364">
        <ele>432</ele>
        <time>2020-10-21T15:11:24</time>
      </trkpt>
      <trkpt lat="43.78649" lon="5.43355">
        <ele>431</ele>
        <time>2020-10-21T15:11:29</time>
      </trkpt>
      <trkpt lat="43.78627" lon="5.43352">
        <ele>430</ele>
        <time>2020-10-21T15:11:34</time>
      </trkpt>
      <trkpt lat="43.78611" lon="5.43369">
        <ele>428</ele>
        <time>2020-10-21T15:11:39</time>
      </trkpt>
      <trkpt lat="43.78591" lon="5.43381">
        <ele>427</ele>
        <time>2020-10-21T15:11:44</time>
      </trkpt>
      <trkpt lat="43.78579" lon="5.43386">
        <ele>426</ele>
        <time>2020-10-21T15:11:47</time>
      </trkpt>
      <trkpt lat="43.78567" lon="5.43387">
        <ele>427</ele>
        <time>2020-10-21T15:11:50</time>
      </trkpt>
      <trkpt lat="43.78559" lon="5.4338">
        <ele>425</ele>
        <time>2020-10-21T15:11:57</time>
      </trkpt>
      <trkpt lat="43.78545" lon="5.4336">
        <ele>425</ele>
        <time>2020-10-21T15:12:06</time>
      </trkpt>
      <trkpt lat="43.78536" lon="5.43354">
        <ele>424</ele>
        <time>2020-10-21T15:12:19</time>
      </trkpt>
      <trkpt lat="43.78528" lon="5.43347">
        <ele>422</ele>
        <time>2020-10-21T15:12:28</time>
      </trkpt>
      <trkpt lat="43.78519" lon="5.4334">
        <ele>421</ele>
        <time>2020-10-21T15:12:43</time>
      </trkpt>
      <trkpt lat="43.78509" lon="5.43333">
        <ele>421</ele>
        <time>2020-10-21T15:12:48</time>
      </trkpt>
      <trkpt lat="43.78499" lon="5.43329">
        <ele>421</ele>
        <time>2020-10-21T15:12:52</time>
      </trkpt>
      <trkpt lat="43.78489" lon="5.43326">
        <ele>421</ele>
        <time>2020-10-21T15:12:56</time>
      </trkpt>
      <trkpt lat="43.78479" lon="5.43325">
        <ele>420</ele>
        <time>2020-10-21T15:12:59</time>
      </trkpt>
      <trkpt lat="43.78467" lon="5.43324">
        <ele>420</ele>
        <time>2020-10-21T15:13:02</time>
      </trkpt>
      <trkpt lat="43.78455" lon="5.43322">
        <ele>419</ele>
        <time>2020-10-21T15:13:05</time>
      </trkpt>
      <trkpt lat="43.78444" lon="5.43321">
        <ele>418</ele>
        <time>2020-10-21T15:13:08</time>
      </trkpt>
      <trkpt lat="43.78435" lon="5.43318">
        <ele>415</ele>
        <time>2020-10-21T15:13:11</time>
      </trkpt>
      <trkpt lat="43.78426" lon="5.43317">
        <ele>415</ele>
        <time>2020-10-21T15:13:14</time>
      </trkpt>
      <trkpt lat="43.78405" lon="5.43319">
        <ele>415</ele>
        <time>2020-10-21T15:13:21</time>
      </trkpt>
      <trkpt lat="43.78391" lon="5.43322">
        <ele>415</ele>
        <time>2020-10-21T15:13:25</time>
      </trkpt>
      <trkpt lat="43.78379" lon="5.43326">
        <ele>413</ele>
        <time>2020-10-21T15:13:28</time>
      </trkpt>
      <trkpt lat="43.78371" lon="5.43331">
        <ele>413</ele>
        <time>2020-10-21T15:13:30</time>
      </trkpt>
      <trkpt lat="43.78359" lon="5.43335">
        <ele>412</ele>
        <time>2020-10-21T15:13:33</time>
      </trkpt>
      <trkpt lat="43.7835" lon="5.43337">
        <ele>411</ele>
        <time>2020-10-21T15:13:36</time>
      </trkpt>
      <trkpt lat="43.78331" lon="5.43339">
        <ele>411</ele>
        <time>2020-10-21T15:13:42</time>
      </trkpt>
      <trkpt lat="43.78312" lon="5.43343">
        <ele>410</ele>
        <time>2020-10-21T15:13:47</time>
      </trkpt>
      <trkpt lat="43.78294" lon="5.4335">
        <ele>408</ele>
        <time>2020-10-21T15:13:53</time>
      </trkpt>
      <trkpt lat="43.7828" lon="5.43367">
        <ele>406</ele>
        <time>2020-10-21T15:14:01</time>
      </trkpt>
      <trkpt lat="43.78262" lon="5.43378">
        <ele>406</ele>
        <time>2020-10-21T15:14:08</time>
      </trkpt>
      <trkpt lat="43.78251" lon="5.43377">
        <ele>405</ele>
        <time>2020-10-21T15:14:15</time>
      </trkpt>
      <trkpt lat="43.78241" lon="5.43379">
        <ele>404</ele>
        <time>2020-10-21T15:14:20</time>
      </trkpt>
      <trkpt lat="43.7823" lon="5.43382">
        <ele>403</ele>
        <time>2020-10-21T15:14:26</time>
      </trkpt>
      <trkpt lat="43.78222" lon="5.43385">
        <ele>402</ele>
        <time>2020-10-21T15:14:32</time>
      </trkpt>
      <trkpt lat="43.7821" lon="5.43392">
        <ele>400</ele>
        <time>2020-10-21T15:14:39</time>
      </trkpt>
      <trkpt lat="43.78201" lon="5.43398">
        <ele>399</ele>
        <time>2020-10-21T15:14:43</time>
      </trkpt>
      <trkpt lat="43.78192" lon="5.434">
        <ele>400</ele>
        <time>2020-10-21T15:14:46</time>
      </trkpt>
      <trkpt lat="43.78181" lon="5.43399">
        <ele>400</ele>
        <time>2020-10-21T15:14:49</time>
      </trkpt>
      <trkpt lat="43.78169" lon="5.43398">
        <ele>399</ele>
        <time>2020-10-21T15:14:53</time>
      </trkpt>
      <trkpt lat="43.78156" lon="5.43396">
        <ele>397</ele>
        <time>2020-10-21T15:15:00</time>
      </trkpt>
      <trkpt lat="43.78146" lon="5.43392">
        <ele>396</ele>
        <time>2020-10-21T15:15:04</time>
      </trkpt>
      <trkpt lat="43.78137" lon="5.43389">
        <ele>397</ele>
        <time>2020-10-21T15:15:07</time>
      </trkpt>
      <trkpt lat="43.78128" lon="5.43391">
        <ele>396</ele>
        <time>2020-10-21T15:15:09</time>
      </trkpt>
      <trkpt lat="43.78117" lon="5.43396">
        <ele>395</ele>
        <time>2020-10-21T15:15:12</time>
      </trkpt>
      <trkpt lat="43.78107" lon="5.43396">
        <ele>393</ele>
        <time>2020-10-21T15:15:16</time>
      </trkpt>
      <trkpt lat="43.78098" lon="5.43388">
        <ele>393</ele>
        <time>2020-10-21T15:15:21</time>
      </trkpt>
      <trkpt lat="43.78089" lon="5.43381">
        <ele>392</ele>
        <time>2020-10-21T15:15:27</time>
      </trkpt>
      <trkpt lat="43.78076" lon="5.43379">
        <ele>393</ele>
        <time>2020-10-21T15:15:31</time>
      </trkpt>
      <trkpt lat="43.78065" lon="5.43379">
        <ele>392</ele>
        <time>2020-10-21T15:15:34</time>
      </trkpt>
      <trkpt lat="43.78055" lon="5.43376">
        <ele>392</ele>
        <time>2020-10-21T15:15:37</time>
      </trkpt>
      <trkpt lat="43.78046" lon="5.43373">
        <ele>391</ele>
        <time>2020-10-21T15:15:40</time>
      </trkpt>
      <trkpt lat="43.78035" lon="5.43374">
        <ele>390</ele>
        <time>2020-10-21T15:15:44</time>
      </trkpt>
      <trkpt lat="43.78023" lon="5.43376">
        <ele>389</ele>
        <time>2020-10-21T15:15:48</time>
      </trkpt>
      <trkpt lat="43.78014" lon="5.43368">
        <ele>389</ele>
        <time>2020-10-21T15:15:53</time>
      </trkpt>
      <trkpt lat="43.78004" lon="5.43366">
        <ele>388</ele>
        <time>2020-10-21T15:15:57</time>
      </trkpt>
      <trkpt lat="43.77995" lon="5.43365">
        <ele>388</ele>
        <time>2020-10-21T15:16:01</time>
      </trkpt>
      <trkpt lat="43.77983" lon="5.4336">
        <ele>387</ele>
        <time>2020-10-21T15:16:05</time>
      </trkpt>
      <trkpt lat="43.77974" lon="5.43358">
        <ele>387</ele>
        <time>2020-10-21T15:16:08</time>
      </trkpt>
      <trkpt lat="43.77963" lon="5.43359">
        <ele>386</ele>
        <time>2020-10-21T15:16:12</time>
      </trkpt>
      <trkpt lat="43.77945" lon="5.43356">
        <ele>385</ele>
        <time>2020-10-21T15:16:22</time>
      </trkpt>
      <trkpt lat="43.77925" lon="5.4335">
        <ele>385</ele>
        <time>2020-10-21T15:16:27</time>
      </trkpt>
      <trkpt lat="43.77906" lon="5.43347">
        <ele>385</ele>
        <time>2020-10-21T15:16:33</time>
      </trkpt>
      <trkpt lat="43.77887" lon="5.43341">
        <ele>381</ele>
        <time>2020-10-21T15:16:40</time>
      </trkpt>
      <trkpt lat="43.77867" lon="5.43332">
        <ele>380</ele>
        <time>2020-10-21T15:16:45</time>
      </trkpt>
      <trkpt lat="43.77856" lon="5.43333">
        <ele>380</ele>
        <time>2020-10-21T15:16:47</time>
      </trkpt>
      <trkpt lat="43.77846" lon="5.43327">
        <ele>381</ele>
        <time>2020-10-21T15:16:50</time>
      </trkpt>
      <trkpt lat="43.77837" lon="5.43324">
        <ele>381</ele>
        <time>2020-10-21T15:16:52</time>
      </trkpt>
      <trkpt lat="43.77828" lon="5.43321">
        <ele>380</ele>
        <time>2020-10-21T15:16:54</time>
      </trkpt>
      <trkpt lat="43.77818" lon="5.43312">
        <ele>379</ele>
        <time>2020-10-21T15:16:56</time>
      </trkpt>
      <trkpt lat="43.77811" lon="5.43303">
        <ele>378</ele>
        <time>2020-10-21T15:16:59</time>
      </trkpt>
      <trkpt lat="43.77797" lon="5.43301">
        <ele>378</ele>
        <time>2020-10-21T15:17:03</time>
      </trkpt>
      <trkpt lat="43.77793" lon="5.4329">
        <ele>377</ele>
        <time>2020-10-21T15:17:06</time>
      </trkpt>
      <trkpt lat="43.77781" lon="5.43281">
        <ele>376</ele>
        <time>2020-10-21T15:17:09</time>
      </trkpt>
      <trkpt lat="43.77771" lon="5.43276">
        <ele>375</ele>
        <time>2020-10-21T15:17:11</time>
      </trkpt>
      <trkpt lat="43.77752" lon="5.4327">
        <ele>373</ele>
        <time>2020-10-21T15:17:15</time>
      </trkpt>
      <trkpt lat="43.77735" lon="5.43272">
        <ele>371</ele>
        <time>2020-10-21T15:17:18</time>
      </trkpt>
      <trkpt lat="43.77724" lon="5.43272">
        <ele>370</ele>
        <time>2020-10-21T15:17:20</time>
      </trkpt>
      <trkpt lat="43.77715" lon="5.43273">
        <ele>370</ele>
        <time>2020-10-21T15:17:22</time>
      </trkpt>
      <trkpt lat="43.77706" lon="5.43268">
        <ele>369</ele>
        <time>2020-10-21T15:17:25</time>
      </trkpt>
      <trkpt lat="43.77696" lon="5.43263">
        <ele>369</ele>
        <time>2020-10-21T15:17:28</time>
      </trkpt>
      <trkpt lat="43.77686" lon="5.43256">
        <ele>367</ele>
        <time>2020-10-21T15:17:32</time>
      </trkpt>
      <trkpt lat="43.77677" lon="5.43254">
        <ele>367</ele>
        <time>2020-10-21T15:17:35</time>
      </trkpt>
      <trkpt lat="43.77666" lon="5.43253">
        <ele>366</ele>
        <time>2020-10-21T15:17:38</time>
      </trkpt>
      <trkpt lat="43.77657" lon="5.43254">
        <ele>365</ele>
        <time>2020-10-21T15:17:41</time>
      </trkpt>
      <trkpt lat="43.77648" lon="5.43259">
        <ele>364</ele>
        <time>2020-10-21T15:17:45</time>
      </trkpt>
      <trkpt lat="43.77636" lon="5.43285">
        <ele>362</ele>
        <time>2020-10-21T15:17:49</time>
      </trkpt>
      <trkpt lat="43.77621" lon="5.4331">
        <ele>362</ele>
        <time>2020-10-21T15:17:53</time>
      </trkpt>
      <trkpt lat="43.77612" lon="5.43334">
        <ele>361</ele>
        <time>2020-10-21T15:17:55</time>
      </trkpt>
      <trkpt lat="43.776" lon="5.4336">
        <ele>359</ele>
        <time>2020-10-21T15:17:58</time>
      </trkpt>
      <trkpt lat="43.77587" lon="5.43389">
        <ele>357</ele>
        <time>2020-10-21T15:18:01</time>
      </trkpt>
      <trkpt lat="43.77576" lon="5.43411">
        <ele>356</ele>
        <time>2020-10-21T15:18:03</time>
      </trkpt>
      <trkpt lat="43.77562" lon="5.43439">
        <ele>355</ele>
        <time>2020-10-21T15:18:06</time>
      </trkpt>
      <trkpt lat="43.77552" lon="5.43462">
        <ele>353</ele>
        <time>2020-10-21T15:18:08</time>
      </trkpt>
      <trkpt lat="43.77541" lon="5.4349">
        <ele>352</ele>
        <time>2020-10-21T15:18:11</time>
      </trkpt>
      <trkpt lat="43.77533" lon="5.43513">
        <ele>349</ele>
        <time>2020-10-21T15:18:13</time>
      </trkpt>
      <trkpt lat="43.77527" lon="5.43538">
        <ele>349</ele>
        <time>2020-10-21T15:18:16</time>
      </trkpt>
      <trkpt lat="43.77508" lon="5.43534">
        <ele>348</ele>
        <time>2020-10-21T15:18:21</time>
      </trkpt>
      <trkpt lat="43.77492" lon="5.43517">
        <ele>346</ele>
        <time>2020-10-21T15:18:25</time>
      </trkpt>
      <trkpt lat="43.77475" lon="5.43503">
        <ele>346</ele>
        <time>2020-10-21T15:18:28</time>
      </trkpt>
      <trkpt lat="43.77457" lon="5.43477">
        <ele>345</ele>
        <time>2020-10-21T15:18:32</time>
      </trkpt>
      <trkpt lat="43.77453" lon="5.43461">
        <ele>346</ele>
        <time>2020-10-21T15:18:35</time>
      </trkpt>
      <trkpt lat="43.77448" lon="5.4345">
        <ele>345</ele>
        <time>2020-10-21T15:18:38</time>
      </trkpt>
      <trkpt lat="43.77448" lon="5.43437">
        <ele>345</ele>
        <time>2020-10-21T15:18:40</time>
      </trkpt>
      <trkpt lat="43.77446" lon="5.43424">
        <ele>346</ele>
        <time>2020-10-21T15:18:41</time>
      </trkpt>
      <trkpt lat="43.77437" lon="5.43425">
        <ele>346</ele>
        <time>2020-10-21T15:18:45</time>
      </trkpt>
      <trkpt lat="43.77427" lon="5.43429">
        <ele>346</ele>
        <time>2020-10-21T15:18:48</time>
      </trkpt>
      <trkpt lat="43.77419" lon="5.43436">
        <ele>345</ele>
        <time>2020-10-21T15:18:51</time>
      </trkpt>
      <trkpt lat="43.77412" lon="5.43448">
        <ele>344</ele>
        <time>2020-10-21T15:18:53</time>
      </trkpt>
      <trkpt lat="43.77405" lon="5.43457">
        <ele>343</ele>
        <time>2020-10-21T15:18:55</time>
      </trkpt>
      <trkpt lat="43.774" lon="5.43471">
        <ele>342</ele>
        <time>2020-10-21T15:18:57</time>
      </trkpt>
      <trkpt lat="43.77396" lon="5.43491">
        <ele>342</ele>
        <time>2020-10-21T15:18:59</time>
      </trkpt>
      <trkpt lat="43.77392" lon="5.43509">
        <ele>340</ele>
        <time>2020-10-21T15:19:01</time>
      </trkpt>
      <trkpt lat="43.7739" lon="5.43528">
        <ele>340</ele>
        <time>2020-10-21T15:19:03</time>
      </trkpt>
      <trkpt lat="43.77386" lon="5.43545">
        <ele>339</ele>
        <time>2020-10-21T15:19:05</time>
      </trkpt>
      <trkpt lat="43.77384" lon="5.43562">
        <ele>339</ele>
        <time>2020-10-21T15:19:07</time>
      </trkpt>
      <trkpt lat="43.77378" lon="5.43577">
        <ele>339</ele>
        <time>2020-10-21T15:19:09</time>
      </trkpt>
      <trkpt lat="43.77368" lon="5.43579">
        <ele>340</ele>
        <time>2020-10-21T15:19:12</time>
      </trkpt>
      <trkpt lat="43.77357" lon="5.43569">
        <ele>340</ele>
        <time>2020-10-21T15:19:14</time>
      </trkpt>
      <trkpt lat="43.77346" lon="5.43568">
        <ele>339</ele>
        <time>2020-10-21T15:19:16</time>
      </trkpt>
      <trkpt lat="43.77333" lon="5.43569">
        <ele>338</ele>
        <time>2020-10-21T15:19:18</time>
      </trkpt>
      <trkpt lat="43.7732" lon="5.43578">
        <ele>338</ele>
        <time>2020-10-21T15:19:20</time>
      </trkpt>
      <trkpt lat="43.77311" lon="5.43587">
        <ele>338</ele>
        <time>2020-10-21T15:19:22</time>
      </trkpt>
      <trkpt lat="43.77299" lon="5.43601">
        <ele>338</ele>
        <time>2020-10-21T15:19:24</time>
      </trkpt>
      <trkpt lat="43.77288" lon="5.43605">
        <ele>338</ele>
        <time>2020-10-21T15:19:26</time>
      </trkpt>
      <trkpt lat="43.77279" lon="5.4361">
        <ele>338</ele>
        <time>2020-10-21T15:19:28</time>
      </trkpt>
      <trkpt lat="43.77263" lon="5.43624">
        <ele>336</ele>
        <time>2020-10-21T15:19:30</time>
      </trkpt>
      <trkpt lat="43.77255" lon="5.43631">
        <ele>336</ele>
        <time>2020-10-21T15:19:31</time>
      </trkpt>
      <trkpt lat="43.77241" lon="5.43642">
        <ele>335</ele>
        <time>2020-10-21T15:19:33</time>
      </trkpt>
      <trkpt lat="43.77229" lon="5.43654">
        <ele>334</ele>
        <time>2020-10-21T15:19:35</time>
      </trkpt>
      <trkpt lat="43.77217" lon="5.43666">
        <ele>333</ele>
        <time>2020-10-21T15:19:37</time>
      </trkpt>
      <trkpt lat="43.7721" lon="5.43681">
        <ele>333</ele>
        <time>2020-10-21T15:19:39</time>
      </trkpt>
      <trkpt lat="43.77201" lon="5.43695">
        <ele>332</ele>
        <time>2020-10-21T15:19:42</time>
      </trkpt>
      <trkpt lat="43.77195" lon="5.43718">
        <ele>331</ele>
        <time>2020-10-21T15:19:44</time>
      </trkpt>
      <trkpt lat="43.77189" lon="5.43739">
        <ele>331</ele>
        <time>2020-10-21T15:19:46</time>
      </trkpt>
      <trkpt lat="43.77187" lon="5.43758">
        <ele>332</ele>
        <time>2020-10-21T15:19:48</time>
      </trkpt>
      <trkpt lat="43.77185" lon="5.43773">
        <ele>332</ele>
        <time>2020-10-21T15:19:50</time>
      </trkpt>
      <trkpt lat="43.77184" lon="5.4379">
        <ele>331</ele>
        <time>2020-10-21T15:19:52</time>
      </trkpt>
      <trkpt lat="43.77184" lon="5.43806">
        <ele>331</ele>
        <time>2020-10-21T15:19:54</time>
      </trkpt>
      <trkpt lat="43.77189" lon="5.43834">
        <ele>332</ele>
        <time>2020-10-21T15:19:58</time>
      </trkpt>
      <trkpt lat="43.77195" lon="5.4386">
        <ele>333</ele>
        <time>2020-10-21T15:20:03</time>
      </trkpt>
      <trkpt lat="43.77199" lon="5.43888">
        <ele>334</ele>
        <time>2020-10-21T15:20:09</time>
      </trkpt>
      <trkpt lat="43.77199" lon="5.43917">
        <ele>334</ele>
        <time>2020-10-21T15:20:15</time>
      </trkpt>
      <trkpt lat="43.77204" lon="5.43947">
        <ele>334</ele>
        <time>2020-10-21T15:20:20</time>
      </trkpt>
      <trkpt lat="43.77213" lon="5.43971">
        <ele>335</ele>
        <time>2020-10-21T15:20:25</time>
      </trkpt>
      <trkpt lat="43.77208" lon="5.43995">
        <ele>335</ele>
        <time>2020-10-21T15:20:33</time>
      </trkpt>
      <trkpt lat="43.772" lon="5.44001">
        <ele>334</ele>
        <time>2020-10-21T15:20:36</time>
      </trkpt>
      <trkpt lat="43.7719" lon="5.4401">
        <ele>333</ele>
        <time>2020-10-21T15:20:39</time>
      </trkpt>
      <trkpt lat="43.77181" lon="5.44018">
        <ele>333</ele>
        <time>2020-10-21T15:20:42</time>
      </trkpt>
      <trkpt lat="43.77169" lon="5.44031">
        <ele>332</ele>
        <time>2020-10-21T15:20:45</time>
      </trkpt>
      <trkpt lat="43.77157" lon="5.4404">
        <ele>332</ele>
        <time>2020-10-21T15:20:47</time>
      </trkpt>
      <trkpt lat="43.77146" lon="5.44049">
        <ele>331</ele>
        <time>2020-10-21T15:20:49</time>
      </trkpt>
      <trkpt lat="43.77139" lon="5.44057">
        <ele>331</ele>
        <time>2020-10-21T15:20:50</time>
      </trkpt>
      <trkpt lat="43.77132" lon="5.44071">
        <ele>330</ele>
        <time>2020-10-21T15:20:51</time>
      </trkpt>
      <trkpt lat="43.77123" lon="5.44081">
        <ele>328</ele>
        <time>2020-10-21T15:20:53</time>
      </trkpt>
      <trkpt lat="43.77114" lon="5.44095">
        <ele>328</ele>
        <time>2020-10-21T15:20:55</time>
      </trkpt>
      <trkpt lat="43.77105" lon="5.44104">
        <ele>327</ele>
        <time>2020-10-21T15:20:58</time>
      </trkpt>
      <trkpt lat="43.77095" lon="5.44121">
        <ele>327</ele>
        <time>2020-10-21T15:21:00</time>
      </trkpt>
      <trkpt lat="43.77086" lon="5.44138">
        <ele>326</ele>
        <time>2020-10-21T15:21:02</time>
      </trkpt>
      <trkpt lat="43.7707" lon="5.44164">
        <ele>326</ele>
        <time>2020-10-21T15:21:06</time>
      </trkpt>
      <trkpt lat="43.77055" lon="5.44183">
        <ele>325</ele>
        <time>2020-10-21T15:21:10</time>
      </trkpt>
      <trkpt lat="43.77045" lon="5.44202">
        <ele>323</ele>
        <time>2020-10-21T15:21:13</time>
      </trkpt>
      <trkpt lat="43.77037" lon="5.44213">
        <ele>323</ele>
        <time>2020-10-21T15:21:15</time>
      </trkpt>
      <trkpt lat="43.77029" lon="5.44224">
        <ele>323</ele>
        <time>2020-10-21T15:21:17</time>
      </trkpt>
      <trkpt lat="43.77023" lon="5.44234">
        <ele>322</ele>
        <time>2020-10-21T15:21:19</time>
      </trkpt>
      <trkpt lat="43.77014" lon="5.44246">
        <ele>322</ele>
        <time>2020-10-21T15:21:21</time>
      </trkpt>
      <trkpt lat="43.77009" lon="5.44259">
        <ele>321</ele>
        <time>2020-10-21T15:21:23</time>
      </trkpt>
      <trkpt lat="43.77003" lon="5.44268">
        <ele>320</ele>
        <time>2020-10-21T15:21:25</time>
      </trkpt>
      <trkpt lat="43.76994" lon="5.44283">
        <ele>317</ele>
        <time>2020-10-21T15:21:28</time>
      </trkpt>
      <trkpt lat="43.76985" lon="5.44299">
        <ele>317</ele>
        <time>2020-10-21T15:21:30</time>
      </trkpt>
      <trkpt lat="43.76975" lon="5.44312">
        <ele>317</ele>
        <time>2020-10-21T15:21:32</time>
      </trkpt>
      <trkpt lat="43.76969" lon="5.44323">
        <ele>317</ele>
        <time>2020-10-21T15:21:34</time>
      </trkpt>
      <trkpt lat="43.76954" lon="5.44344">
        <ele>316</ele>
        <time>2020-10-21T15:21:38</time>
      </trkpt>
      <trkpt lat="43.76944" lon="5.4436">
        <ele>317</ele>
        <time>2020-10-21T15:21:41</time>
      </trkpt>
      <trkpt lat="43.76936" lon="5.44372">
        <ele>317</ele>
        <time>2020-10-21T15:21:43</time>
      </trkpt>
      <trkpt lat="43.76929" lon="5.44383">
        <ele>317</ele>
        <time>2020-10-21T15:21:45</time>
      </trkpt>
      <trkpt lat="43.76921" lon="5.44391">
        <ele>317</ele>
        <time>2020-10-21T15:21:47</time>
      </trkpt>
      <trkpt lat="43.76905" lon="5.44413">
        <ele>317</ele>
        <time>2020-10-21T15:21:52</time>
      </trkpt>
      <trkpt lat="43.76889" lon="5.44433">
        <ele>317</ele>
        <time>2020-10-21T15:21:56</time>
      </trkpt>
      <trkpt lat="43.76873" lon="5.44447">
        <ele>315</ele>
        <time>2020-10-21T15:22:00</time>
      </trkpt>
      <trkpt lat="43.76859" lon="5.44465">
        <ele>315</ele>
        <time>2020-10-21T15:22:05</time>
      </trkpt>
      <trkpt lat="43.76849" lon="5.44487">
        <ele>315</ele>
        <time>2020-10-21T15:22:09</time>
      </trkpt>
      <trkpt lat="43.7684" lon="5.44511">
        <ele>315</ele>
        <time>2020-10-21T15:22:13</time>
      </trkpt>
      <trkpt lat="43.76827" lon="5.44529">
        <ele>315</ele>
        <time>2020-10-21T15:22:18</time>
      </trkpt>
      <trkpt lat="43.76819" lon="5.44551">
        <ele>316</ele>
        <time>2020-10-21T15:22:21</time>
      </trkpt>
      <trkpt lat="43.76805" lon="5.44571">
        <ele>316</ele>
        <time>2020-10-21T15:22:25</time>
      </trkpt>
      <trkpt lat="43.76795" lon="5.44595">
        <ele>316</ele>
        <time>2020-10-21T15:22:29</time>
      </trkpt>
      <trkpt lat="43.76781" lon="5.44614">
        <ele>315</ele>
        <time>2020-10-21T15:22:34</time>
      </trkpt>
      <trkpt lat="43.76768" lon="5.44633">
        <ele>314</ele>
        <time>2020-10-21T15:22:38</time>
      </trkpt>
      <trkpt lat="43.76749" lon="5.44631">
        <ele>315</ele>
        <time>2020-10-21T15:22:42</time>
      </trkpt>
      <trkpt lat="43.76726" lon="5.44632">
        <ele>314</ele>
        <time>2020-10-21T15:22:46</time>
      </trkpt>
      <trkpt lat="43.76704" lon="5.44628">
        <ele>313</ele>
        <time>2020-10-21T15:22:50</time>
      </trkpt>
      <trkpt lat="43.76686" lon="5.44625">
        <ele>312</ele>
        <time>2020-10-21T15:22:53</time>
      </trkpt>
      <trkpt lat="43.76673" lon="5.44625">
        <ele>312</ele>
        <time>2020-10-21T15:22:55</time>
      </trkpt>
      <trkpt lat="43.76659" lon="5.44629">
        <ele>313</ele>
        <time>2020-10-21T15:22:57</time>
      </trkpt>
      <trkpt lat="43.76646" lon="5.44629">
        <ele>313</ele>
        <time>2020-10-21T15:22:59</time>
      </trkpt>
      <trkpt lat="43.76632" lon="5.44632">
        <ele>312</ele>
        <time>2020-10-21T15:23:01</time>
      </trkpt>
      <trkpt lat="43.76612" lon="5.44632">
        <ele>312</ele>
        <time>2020-10-21T15:23:04</time>
      </trkpt>
      <trkpt lat="43.76589" lon="5.44633">
        <ele>312</ele>
        <time>2020-10-21T15:23:07</time>
      </trkpt>
      <trkpt lat="43.76569" lon="5.44636">
        <ele>311</ele>
        <time>2020-10-21T15:23:10</time>
      </trkpt>
      <trkpt lat="43.76547" lon="5.4464">
        <ele>311</ele>
        <time>2020-10-21T15:23:13</time>
      </trkpt>
      <trkpt lat="43.76525" lon="5.44643">
        <ele>309</ele>
        <time>2020-10-21T15:23:16</time>
      </trkpt>
      <trkpt lat="43.76502" lon="5.44648">
        <ele>308</ele>
        <time>2020-10-21T15:23:19</time>
      </trkpt>
      <trkpt lat="43.76478" lon="5.44654">
        <ele>308</ele>
        <time>2020-10-21T15:23:22</time>
      </trkpt>
      <trkpt lat="43.76456" lon="5.44658">
        <ele>308</ele>
        <time>2020-10-21T15:23:25</time>
      </trkpt>
      <trkpt lat="43.76433" lon="5.44663">
        <ele>308</ele>
        <time>2020-10-21T15:23:28</time>
      </trkpt>
      <trkpt lat="43.7641" lon="5.44668">
        <ele>307</ele>
        <time>2020-10-21T15:23:31</time>
      </trkpt>
      <trkpt lat="43.76393" lon="5.44669">
        <ele>307</ele>
        <time>2020-10-21T15:23:33</time>
      </trkpt>
      <trkpt lat="43.76376" lon="5.44669">
        <ele>307</ele>
        <time>2020-10-21T15:23:35</time>
      </trkpt>
      <trkpt lat="43.76362" lon="5.44664">
        <ele>306</ele>
        <time>2020-10-21T15:23:37</time>
      </trkpt>
      <trkpt lat="43.76348" lon="5.44656">
        <ele>305</ele>
        <time>2020-10-21T15:23:39</time>
      </trkpt>
      <trkpt lat="43.76335" lon="5.44646">
        <ele>306</ele>
        <time>2020-10-21T15:23:41</time>
      </trkpt>
      <trkpt lat="43.76322" lon="5.44632">
        <ele>306</ele>
        <time>2020-10-21T15:23:43</time>
      </trkpt>
      <trkpt lat="43.76313" lon="5.44624">
        <ele>305</ele>
        <time>2020-10-21T15:23:45</time>
      </trkpt>
      <trkpt lat="43.76297" lon="5.44606">
        <ele>305</ele>
        <time>2020-10-21T15:23:48</time>
      </trkpt>
      <trkpt lat="43.76277" lon="5.44594">
        <ele>304</ele>
        <time>2020-10-21T15:23:50</time>
      </trkpt>
      <trkpt lat="43.76257" lon="5.44585">
        <ele>303</ele>
        <time>2020-10-21T15:23:52</time>
      </trkpt>
      <trkpt lat="43.76236" lon="5.44579">
        <ele>303</ele>
        <time>2020-10-21T15:23:54</time>
      </trkpt>
      <trkpt lat="43.76218" lon="5.44576">
        <ele>302</ele>
        <time>2020-10-21T15:23:56</time>
      </trkpt>
      <trkpt lat="43.76206" lon="5.44576">
        <ele>301</ele>
        <time>2020-10-21T15:23:57</time>
      </trkpt>
      <trkpt lat="43.76196" lon="5.44578">
        <ele>301</ele>
        <time>2020-10-21T15:23:58</time>
      </trkpt>
      <trkpt lat="43.76179" lon="5.44584">
        <ele>300</ele>
        <time>2020-10-21T15:24:00</time>
      </trkpt>
      <trkpt lat="43.76169" lon="5.44587">
        <ele>299</ele>
        <time>2020-10-21T15:24:01</time>
      </trkpt>
      <trkpt lat="43.76155" lon="5.44597">
        <ele>299</ele>
        <time>2020-10-21T15:24:03</time>
      </trkpt>
      <trkpt lat="43.76138" lon="5.44606">
        <ele>298</ele>
        <time>2020-10-21T15:24:05</time>
      </trkpt>
      <trkpt lat="43.76119" lon="5.44615">
        <ele>296</ele>
        <time>2020-10-21T15:24:08</time>
      </trkpt>
      <trkpt lat="43.76099" lon="5.44624">
        <ele>296</ele>
        <time>2020-10-21T15:24:11</time>
      </trkpt>
      <trkpt lat="43.7608" lon="5.44638">
        <ele>295</ele>
        <time>2020-10-21T15:24:14</time>
      </trkpt>
      <trkpt lat="43.76056" lon="5.44648">
        <ele>293</ele>
        <time>2020-10-21T15:24:18</time>
      </trkpt>
      <trkpt lat="43.76034" lon="5.44656">
        <ele>293</ele>
        <time>2020-10-21T15:24:21</time>
      </trkpt>
      <trkpt lat="43.76016" lon="5.44666">
        <ele>293</ele>
        <time>2020-10-21T15:24:25</time>
      </trkpt>
      <trkpt lat="43.76014" lon="5.44693">
        <ele>292</ele>
        <time>2020-10-21T15:24:30</time>
      </trkpt>
      <trkpt lat="43.76014" lon="5.44719">
        <ele>290</ele>
        <time>2020-10-21T15:24:35</time>
      </trkpt>
      <trkpt lat="43.76008" lon="5.44746">
        <ele>290</ele>
        <time>2020-10-21T15:24:40</time>
      </trkpt>
      <trkpt lat="43.76006" lon="5.44766">
        <ele>290</ele>
        <time>2020-10-21T15:24:43</time>
      </trkpt>
      <trkpt lat="43.76006" lon="5.44783">
        <ele>290</ele>
        <time>2020-10-21T15:24:46</time>
      </trkpt>
      <trkpt lat="43.76006" lon="5.44799">
        <ele>288</ele>
        <time>2020-10-21T15:24:49</time>
      </trkpt>
      <trkpt lat="43.76005" lon="5.44813">
        <ele>289</ele>
        <time>2020-10-21T15:24:51</time>
      </trkpt>
      <trkpt lat="43.76005" lon="5.44843">
        <ele>288</ele>
        <time>2020-10-21T15:24:56</time>
      </trkpt>
      <trkpt lat="43.76" lon="5.4487">
        <ele>289</ele>
        <time>2020-10-21T15:25:01</time>
      </trkpt>
      <trkpt lat="43.75995" lon="5.44894">
        <ele>289</ele>
        <time>2020-10-21T15:25:06</time>
      </trkpt>
      <trkpt lat="43.75994" lon="5.44915">
        <ele>290</ele>
        <time>2020-10-21T15:25:13</time>
      </trkpt>
      <trkpt lat="43.75993" lon="5.4493">
        <ele>290</ele>
        <time>2020-10-21T15:25:17</time>
      </trkpt>
      <trkpt lat="43.75991" lon="5.44942">
        <ele>291</ele>
        <time>2020-10-21T15:25:20</time>
      </trkpt>
      <trkpt lat="43.75987" lon="5.44954">
        <ele>292</ele>
        <time>2020-10-21T15:25:23</time>
      </trkpt>
      <trkpt lat="43.75984" lon="5.44967">
        <ele>293</ele>
        <time>2020-10-21T15:25:26</time>
      </trkpt>
      <trkpt lat="43.7598" lon="5.44993">
        <ele>293</ele>
        <time>2020-10-21T15:25:32</time>
      </trkpt>
      <trkpt lat="43.75974" lon="5.4502">
        <ele>293</ele>
        <time>2020-10-21T15:25:38</time>
      </trkpt>
      <trkpt lat="43.75968" lon="5.45047">
        <ele>292</ele>
        <time>2020-10-21T15:25:44</time>
      </trkpt>
      <trkpt lat="43.75965" lon="5.45072">
        <ele>291</ele>
        <time>2020-10-21T15:25:49</time>
      </trkpt>
      <trkpt lat="43.75961" lon="5.45098">
        <ele>290</ele>
        <time>2020-10-21T15:25:54</time>
      </trkpt>
      <trkpt lat="43.75957" lon="5.45126">
        <ele>291</ele>
        <time>2020-10-21T15:25:59</time>
      </trkpt>
      <trkpt lat="43.75954" lon="5.45151">
        <ele>293</ele>
        <time>2020-10-21T15:26:04</time>
      </trkpt>
      <trkpt lat="43.75953" lon="5.45179">
        <ele>294</ele>
        <time>2020-10-21T15:26:09</time>
      </trkpt>
      <trkpt lat="43.75949" lon="5.45207">
        <ele>295</ele>
        <time>2020-10-21T15:26:14</time>
      </trkpt>
      <trkpt lat="43.75943" lon="5.45233">
        <ele>295</ele>
        <time>2020-10-21T15:26:19</time>
      </trkpt>
      <trkpt lat="43.7594" lon="5.45259">
        <ele>294</ele>
        <time>2020-10-21T15:26:24</time>
      </trkpt>
      <trkpt lat="43.75941" lon="5.45286">
        <ele>293</ele>
        <time>2020-10-21T15:26:29</time>
      </trkpt>
      <trkpt lat="43.75941" lon="5.45314">
        <ele>293</ele>
        <time>2020-10-21T15:26:34</time>
      </trkpt>
      <trkpt lat="43.75939" lon="5.4534">
        <ele>292</ele>
        <time>2020-10-21T15:26:39</time>
      </trkpt>
      <trkpt lat="43.75937" lon="5.45368">
        <ele>293</ele>
        <time>2020-10-21T15:26:44</time>
      </trkpt>
      <trkpt lat="43.75936" lon="5.45393">
        <ele>293</ele>
        <time>2020-10-21T15:26:48</time>
      </trkpt>
      <trkpt lat="43.75938" lon="5.45426">
        <ele>293</ele>
        <time>2020-10-21T15:26:52</time>
      </trkpt>
      <trkpt lat="43.75931" lon="5.4545">
        <ele>292</ele>
        <time>2020-10-21T15:26:56</time>
      </trkpt>
      <trkpt lat="43.7592" lon="5.45473">
        <ele>291</ele>
        <time>2020-10-21T15:27:00</time>
      </trkpt>
      <trkpt lat="43.75907" lon="5.45497">
        <ele>291</ele>
        <time>2020-10-21T15:27:05</time>
      </trkpt>
      <trkpt lat="43.75899" lon="5.45524">
        <ele>291</ele>
        <time>2020-10-21T15:27:09</time>
      </trkpt>
      <trkpt lat="43.75892" lon="5.45548">
        <ele>293</ele>
        <time>2020-10-21T15:27:13</time>
      </trkpt>
      <trkpt lat="43.75884" lon="5.45572">
        <ele>293</ele>
        <time>2020-10-21T15:27:17</time>
      </trkpt>
      <trkpt lat="43.75878" lon="5.45597">
        <ele>293</ele>
        <time>2020-10-21T15:27:23</time>
      </trkpt>
      <trkpt lat="43.75873" lon="5.4562">
        <ele>292</ele>
        <time>2020-10-21T15:27:34</time>
      </trkpt>
      <trkpt lat="43.75867" lon="5.45633">
        <ele>292</ele>
        <time>2020-10-21T15:27:37</time>
      </trkpt>
      <trkpt lat="43.75861" lon="5.45647">
        <ele>293</ele>
        <time>2020-10-21T15:27:40</time>
      </trkpt>
      <trkpt lat="43.75852" lon="5.45671">
        <ele>292</ele>
        <time>2020-10-21T15:27:45</time>
      </trkpt>
      <trkpt lat="43.75842" lon="5.45692">
        <ele>294</ele>
        <time>2020-10-21T15:27:50</time>
      </trkpt>
      <trkpt lat="43.7583" lon="5.45712">
        <ele>292</ele>
        <time>2020-10-21T15:27:55</time>
      </trkpt>
      <trkpt lat="43.75822" lon="5.4574">
        <ele>292</ele>
        <time>2020-10-21T15:28:00</time>
      </trkpt>
      <trkpt lat="43.75812" lon="5.45764">
        <ele>292</ele>
        <time>2020-10-21T15:28:05</time>
      </trkpt>
      <trkpt lat="43.75801" lon="5.45785">
        <ele>293</ele>
        <time>2020-10-21T15:28:10</time>
      </trkpt>
      <trkpt lat="43.7579" lon="5.45808">
        <ele>292</ele>
        <time>2020-10-21T15:28:15</time>
      </trkpt>
      <trkpt lat="43.75776" lon="5.4583">
        <ele>292</ele>
        <time>2020-10-21T15:28:21</time>
      </trkpt>
      <trkpt lat="43.75765" lon="5.45853">
        <ele>292</ele>
        <time>2020-10-21T15:28:26</time>
      </trkpt>
      <trkpt lat="43.75754" lon="5.45877">
        <ele>292</ele>
        <time>2020-10-21T15:28:31</time>
      </trkpt>
      <trkpt lat="43.75745" lon="5.45901">
        <ele>292</ele>
        <time>2020-10-21T15:28:36</time>
      </trkpt>
      <trkpt lat="43.75737" lon="5.45925">
        <ele>291</ele>
        <time>2020-10-21T15:28:41</time>
      </trkpt>
      <trkpt lat="43.7573" lon="5.45952">
        <ele>291</ele>
        <time>2020-10-21T15:28:46</time>
      </trkpt>
      <trkpt lat="43.75718" lon="5.45973">
        <ele>290</ele>
        <time>2020-10-21T15:28:51</time>
      </trkpt>
      <trkpt lat="43.7571" lon="5.45996">
        <ele>291</ele>
        <time>2020-10-21T15:28:55</time>
      </trkpt>
      <trkpt lat="43.75709" lon="5.46008">
        <ele>290</ele>
        <time>2020-10-21T15:28:57</time>
      </trkpt>
      <trkpt lat="43.75709" lon="5.46027">
        <ele>291</ele>
        <time>2020-10-21T15:29:00</time>
      </trkpt>
      <trkpt lat="43.75708" lon="5.46042">
        <ele>291</ele>
        <time>2020-10-21T15:29:03</time>
      </trkpt>
      <trkpt lat="43.75704" lon="5.46057">
        <ele>290</ele>
        <time>2020-10-21T15:29:06</time>
      </trkpt>
      <trkpt lat="43.75701" lon="5.46072">
        <ele>291</ele>
        <time>2020-10-21T15:29:09</time>
      </trkpt>
      <trkpt lat="43.75697" lon="5.461">
        <ele>290</ele>
        <time>2020-10-21T15:29:15</time>
      </trkpt>
      <trkpt lat="43.75696" lon="5.46126">
        <ele>292</ele>
        <time>2020-10-21T15:29:22</time>
      </trkpt>
      <trkpt lat="43.75691" lon="5.46153">
        <ele>295</ele>
        <time>2020-10-21T15:29:30</time>
      </trkpt>
      <trkpt lat="43.75688" lon="5.46178">
        <ele>294</ele>
        <time>2020-10-21T15:29:37</time>
      </trkpt>
      <trkpt lat="43.75682" lon="5.46204">
        <ele>295</ele>
        <time>2020-10-21T15:29:45</time>
      </trkpt>
      <trkpt lat="43.75675" lon="5.46231">
        <ele>295</ele>
        <time>2020-10-21T15:29:52</time>
      </trkpt>
      <trkpt lat="43.75671" lon="5.46258">
        <ele>297</ele>
        <time>2020-10-21T15:30:00</time>
      </trkpt>
      <trkpt lat="43.75652" lon="5.46265">
        <ele>297</ele>
        <time>2020-10-21T15:30:08</time>
      </trkpt>
      <trkpt lat="43.75641" lon="5.46264">
        <ele>297</ele>
        <time>2020-10-21T15:30:12</time>
      </trkpt>
    </trkseg>
  </trk>
</gpx>